<?xml version="1.0" encoding="UTF-8" standalone="no" ?>
<gpx xmlns="http://www.topografix.com/GPX/1/1" xmlns:xsi="http://www.w3.org/2001/XMLSchema-instance" xsi:schemaLocation="http://www.topografix.com/GPX/1/1 http://www.topografix.com/GPX/1/1/gpx.xsd" version="1.1" creator="VisuGPX - https://www.visugpx.com">
  <metadata>
    <name>Lestong-Grottes-Païolive</name>
    <desc><![CDATA[Boucle des curiosités dans le fabuleux bois de Païolive.]]></desc>
  </metadata>
  <trk>
    <name><![CDATA[31 mars 2017]]></name>
    <cmt><![CDATA[13:46:08]]></cmt>
    <desc><![CDATA[comment ...]]></desc>
    <trkseg>
      <trkpt lat="44.39325" lon="4.19179">
        <ele>196</ele>
        <time>2017-03-31T11:46:08Z</time>
      </trkpt>
      <trkpt lat="44.39324" lon="4.19179">
        <ele>196</ele>
        <time>2017-03-31T11:46:09Z</time>
      </trkpt>
      <trkpt lat="44.39322" lon="4.19178">
        <ele>195</ele>
        <time>2017-03-31T11:47:27Z</time>
      </trkpt>
      <trkpt lat="44.39322" lon="4.19174">
        <ele>195</ele>
        <time>2017-03-31T11:47:54Z</time>
      </trkpt>
      <trkpt lat="44.39323" lon="4.1917">
        <ele>193</ele>
        <time>2017-03-31T11:48:17Z</time>
      </trkpt>
      <trkpt lat="44.39326" lon="4.19169">
        <ele>196</ele>
        <time>2017-03-31T11:50:24Z</time>
      </trkpt>
      <trkpt lat="44.39333" lon="4.19166">
        <ele>197</ele>
        <time>2017-03-31T11:50:32Z</time>
      </trkpt>
      <trkpt lat="44.39337" lon="4.19158">
        <ele>197</ele>
        <time>2017-03-31T11:50:39Z</time>
      </trkpt>
      <trkpt lat="44.3934" lon="4.19157">
        <ele>197</ele>
        <time>2017-03-31T11:50:42Z</time>
      </trkpt>
      <trkpt lat="44.39341" lon="4.19152">
        <ele>196</ele>
        <time>2017-03-31T11:50:45Z</time>
      </trkpt>
      <trkpt lat="44.3934" lon="4.19144">
        <ele>195</ele>
        <time>2017-03-31T11:50:50Z</time>
      </trkpt>
      <trkpt lat="44.39342" lon="4.1914">
        <ele>195</ele>
        <time>2017-03-31T11:50:53Z</time>
      </trkpt>
      <trkpt lat="44.39345" lon="4.19141">
        <ele>196</ele>
        <time>2017-03-31T11:50:57Z</time>
      </trkpt>
      <trkpt lat="44.39349" lon="4.19136">
        <ele>197</ele>
        <time>2017-03-31T11:51:06Z</time>
      </trkpt>
      <trkpt lat="44.39354" lon="4.1913">
        <ele>196</ele>
        <time>2017-03-31T11:51:17Z</time>
      </trkpt>
      <trkpt lat="44.39356" lon="4.19118">
        <ele>197</ele>
        <time>2017-03-31T11:51:30Z</time>
      </trkpt>
      <trkpt lat="44.39365" lon="4.19075">
        <ele>195</ele>
        <time>2017-03-31T11:52:01Z</time>
      </trkpt>
      <trkpt lat="44.39367" lon="4.19067">
        <ele>195</ele>
        <time>2017-03-31T11:52:07Z</time>
      </trkpt>
      <trkpt lat="44.39368" lon="4.19058">
        <ele>195</ele>
        <time>2017-03-31T11:52:13Z</time>
      </trkpt>
      <trkpt lat="44.39367" lon="4.19034">
        <ele>193</ele>
        <time>2017-03-31T11:52:30Z</time>
      </trkpt>
      <trkpt lat="44.39361" lon="4.19017">
        <ele>192</ele>
        <time>2017-03-31T11:52:41Z</time>
      </trkpt>
      <trkpt lat="44.39358" lon="4.19016">
        <ele>192</ele>
        <time>2017-03-31T11:53:04Z</time>
      </trkpt>
      <trkpt lat="44.39356" lon="4.19015">
        <ele>191</ele>
        <time>2017-03-31T11:53:07Z</time>
      </trkpt>
      <trkpt lat="44.39353" lon="4.19015">
        <ele>191</ele>
        <time>2017-03-31T11:53:10Z</time>
      </trkpt>
      <trkpt lat="44.39342" lon="4.19007">
        <ele>189</ele>
        <time>2017-03-31T11:53:25Z</time>
      </trkpt>
      <trkpt lat="44.39335" lon="4.19015">
        <ele>188</ele>
        <time>2017-03-31T11:53:34Z</time>
      </trkpt>
      <trkpt lat="44.39306" lon="4.19034">
        <ele>186</ele>
        <time>2017-03-31T11:54:06Z</time>
      </trkpt>
      <trkpt lat="44.393" lon="4.19035">
        <ele>186</ele>
        <time>2017-03-31T11:54:12Z</time>
      </trkpt>
      <trkpt lat="44.39297" lon="4.19033">
        <ele>186</ele>
        <time>2017-03-31T11:54:15Z</time>
      </trkpt>
      <trkpt lat="44.39289" lon="4.19031">
        <ele>185</ele>
        <time>2017-03-31T11:54:24Z</time>
      </trkpt>
      <trkpt lat="44.39258" lon="4.19012">
        <ele>183</ele>
        <time>2017-03-31T11:54:55Z</time>
      </trkpt>
      <trkpt lat="44.39234" lon="4.19003">
        <ele>181</ele>
        <time>2017-03-31T11:55:18Z</time>
      </trkpt>
      <trkpt lat="44.39203" lon="4.18984">
        <ele>181</ele>
        <time>2017-03-31T11:55:48Z</time>
      </trkpt>
      <trkpt lat="44.39187" lon="4.18975">
        <ele>180</ele>
        <time>2017-03-31T11:56:05Z</time>
      </trkpt>
      <trkpt lat="44.39182" lon="4.18979">
        <ele>181</ele>
        <time>2017-03-31T11:56:31Z</time>
      </trkpt>
      <trkpt lat="44.39179" lon="4.18978">
        <ele>181</ele>
        <time>2017-03-31T11:56:35Z</time>
      </trkpt>
      <trkpt lat="44.39173" lon="4.18968">
        <ele>182</ele>
        <time>2017-03-31T11:56:44Z</time>
      </trkpt>
      <trkpt lat="44.39171" lon="4.18972">
        <ele>182</ele>
        <time>2017-03-31T11:56:48Z</time>
      </trkpt>
      <trkpt lat="44.39166" lon="4.18975">
        <ele>182</ele>
        <time>2017-03-31T11:56:56Z</time>
      </trkpt>
      <trkpt lat="44.39163" lon="4.18975">
        <ele>182</ele>
        <time>2017-03-31T11:56:59Z</time>
      </trkpt>
      <trkpt lat="44.39129" lon="4.18963">
        <ele>181</ele>
        <time>2017-03-31T11:57:31Z</time>
      </trkpt>
      <trkpt lat="44.39113" lon="4.18966">
        <ele>180</ele>
        <time>2017-03-31T11:57:47Z</time>
      </trkpt>
      <trkpt lat="44.39104" lon="4.18971">
        <ele>181</ele>
        <time>2017-03-31T11:57:56Z</time>
      </trkpt>
      <trkpt lat="44.39083" lon="4.18985">
        <ele>180</ele>
        <time>2017-03-31T11:58:16Z</time>
      </trkpt>
      <trkpt lat="44.39057" lon="4.19008">
        <ele>180</ele>
        <time>2017-03-31T11:58:43Z</time>
      </trkpt>
      <trkpt lat="44.39052" lon="4.19004">
        <ele>179</ele>
        <time>2017-03-31T11:58:51Z</time>
      </trkpt>
      <trkpt lat="44.39048" lon="4.18998">
        <ele>179</ele>
        <time>2017-03-31T11:58:57Z</time>
      </trkpt>
      <trkpt lat="44.39044" lon="4.18982">
        <ele>178</ele>
        <time>2017-03-31T11:59:11Z</time>
      </trkpt>
      <trkpt lat="44.39047" lon="4.18969">
        <ele>179</ele>
        <time>2017-03-31T11:59:23Z</time>
      </trkpt>
      <trkpt lat="44.3905" lon="4.18957">
        <ele>180</ele>
        <time>2017-03-31T11:59:36Z</time>
      </trkpt>
      <trkpt lat="44.39059" lon="4.18928">
        <ele>183</ele>
        <time>2017-03-31T12:00:03Z</time>
      </trkpt>
      <trkpt lat="44.39062" lon="4.18916">
        <ele>184</ele>
        <time>2017-03-31T12:00:14Z</time>
      </trkpt>
      <trkpt lat="44.39061" lon="4.18906">
        <ele>185</ele>
        <time>2017-03-31T12:00:22Z</time>
      </trkpt>
      <trkpt lat="44.3906" lon="4.18898">
        <ele>186</ele>
        <time>2017-03-31T12:00:30Z</time>
      </trkpt>
      <trkpt lat="44.39061" lon="4.18894">
        <ele>186</ele>
        <time>2017-03-31T12:00:34Z</time>
      </trkpt>
      <trkpt lat="44.39067" lon="4.18884">
        <ele>187</ele>
        <time>2017-03-31T12:00:46Z</time>
      </trkpt>
      <trkpt lat="44.39067" lon="4.1888">
        <ele>188</ele>
        <time>2017-03-31T12:00:50Z</time>
      </trkpt>
      <trkpt lat="44.39068" lon="4.18863">
        <ele>189</ele>
        <time>2017-03-31T12:01:04Z</time>
      </trkpt>
      <trkpt lat="44.39067" lon="4.18844">
        <ele>190</ele>
        <time>2017-03-31T12:01:19Z</time>
      </trkpt>
      <trkpt lat="44.39067" lon="4.18839">
        <ele>190</ele>
        <time>2017-03-31T12:01:22Z</time>
      </trkpt>
      <trkpt lat="44.39061" lon="4.18801">
        <ele>191</ele>
        <time>2017-03-31T12:01:54Z</time>
      </trkpt>
      <trkpt lat="44.39062" lon="4.18793">
        <ele>192</ele>
        <time>2017-03-31T12:02:01Z</time>
      </trkpt>
      <trkpt lat="44.39061" lon="4.18789">
        <ele>192</ele>
        <time>2017-03-31T12:02:06Z</time>
      </trkpt>
      <trkpt lat="44.39059" lon="4.18782">
        <ele>192</ele>
        <time>2017-03-31T12:02:12Z</time>
      </trkpt>
      <trkpt lat="44.39058" lon="4.18777">
        <ele>192</ele>
        <time>2017-03-31T12:02:15Z</time>
      </trkpt>
      <trkpt lat="44.39059" lon="4.18773">
        <ele>192</ele>
        <time>2017-03-31T12:02:19Z</time>
      </trkpt>
      <trkpt lat="44.39058" lon="4.18769">
        <ele>192</ele>
        <time>2017-03-31T12:02:22Z</time>
      </trkpt>
      <trkpt lat="44.39057" lon="4.18765">
        <ele>193</ele>
        <time>2017-03-31T12:02:27Z</time>
      </trkpt>
      <trkpt lat="44.39055" lon="4.18753">
        <ele>193</ele>
        <time>2017-03-31T12:02:36Z</time>
      </trkpt>
      <trkpt lat="44.39047" lon="4.18721">
        <ele>195</ele>
        <time>2017-03-31T12:03:07Z</time>
      </trkpt>
      <trkpt lat="44.39036" lon="4.18691">
        <ele>196</ele>
        <time>2017-03-31T12:03:37Z</time>
      </trkpt>
      <trkpt lat="44.39023" lon="4.18653">
        <ele>198</ele>
        <time>2017-03-31T12:04:07Z</time>
      </trkpt>
      <trkpt lat="44.39009" lon="4.18617">
        <ele>199</ele>
        <time>2017-03-31T12:04:38Z</time>
      </trkpt>
      <trkpt lat="44.39001" lon="4.18606">
        <ele>199</ele>
        <time>2017-03-31T12:04:51Z</time>
      </trkpt>
      <trkpt lat="44.38991" lon="4.18595">
        <ele>199</ele>
        <time>2017-03-31T12:05:03Z</time>
      </trkpt>
      <trkpt lat="44.3898" lon="4.18579">
        <ele>199</ele>
        <time>2017-03-31T12:05:19Z</time>
      </trkpt>
      <trkpt lat="44.38963" lon="4.18548">
        <ele>200</ele>
        <time>2017-03-31T12:05:50Z</time>
      </trkpt>
      <trkpt lat="44.38948" lon="4.1852">
        <ele>201</ele>
        <time>2017-03-31T12:06:18Z</time>
      </trkpt>
      <trkpt lat="44.38937" lon="4.18498">
        <ele>202</ele>
        <time>2017-03-31T12:06:39Z</time>
      </trkpt>
      <trkpt lat="44.38933" lon="4.18491">
        <ele>202</ele>
        <time>2017-03-31T12:06:46Z</time>
      </trkpt>
      <trkpt lat="44.38926" lon="4.1847">
        <ele>203</ele>
        <time>2017-03-31T12:07:02Z</time>
      </trkpt>
      <trkpt lat="44.38911" lon="4.18439">
        <ele>202</ele>
        <time>2017-03-31T12:07:32Z</time>
      </trkpt>
      <trkpt lat="44.38904" lon="4.1843">
        <ele>204</ele>
        <time>2017-03-31T12:07:42Z</time>
      </trkpt>
      <trkpt lat="44.389" lon="4.18424">
        <ele>204</ele>
        <time>2017-03-31T12:07:50Z</time>
      </trkpt>
      <trkpt lat="44.38897" lon="4.18411">
        <ele>205</ele>
        <time>2017-03-31T12:07:59Z</time>
      </trkpt>
      <trkpt lat="44.38891" lon="4.18377">
        <ele>207</ele>
        <time>2017-03-31T12:08:29Z</time>
      </trkpt>
      <trkpt lat="44.38892" lon="4.18368">
        <ele>207</ele>
        <time>2017-03-31T12:08:35Z</time>
      </trkpt>
      <trkpt lat="44.38894" lon="4.18361">
        <ele>208</ele>
        <time>2017-03-31T12:08:41Z</time>
      </trkpt>
      <trkpt lat="44.38905" lon="4.18339">
        <ele>210</ele>
        <time>2017-03-31T12:09:03Z</time>
      </trkpt>
      <trkpt lat="44.38909" lon="4.18323">
        <ele>212</ele>
        <time>2017-03-31T12:09:19Z</time>
      </trkpt>
      <trkpt lat="44.38907" lon="4.18319">
        <ele>212</ele>
        <time>2017-03-31T12:09:23Z</time>
      </trkpt>
      <trkpt lat="44.38908" lon="4.18315">
        <ele>212</ele>
        <time>2017-03-31T12:09:27Z</time>
      </trkpt>
      <trkpt lat="44.38908" lon="4.18298">
        <ele>215</ele>
        <time>2017-03-31T12:09:43Z</time>
      </trkpt>
      <trkpt lat="44.38905" lon="4.18296">
        <ele>215</ele>
        <time>2017-03-31T12:09:48Z</time>
      </trkpt>
      <trkpt lat="44.38902" lon="4.18295">
        <ele>216</ele>
        <time>2017-03-31T12:09:52Z</time>
      </trkpt>
      <trkpt lat="44.389" lon="4.18295">
        <ele>216</ele>
        <time>2017-03-31T12:09:57Z</time>
      </trkpt>
      <trkpt lat="44.38897" lon="4.18294">
        <ele>216</ele>
        <time>2017-03-31T12:10:01Z</time>
      </trkpt>
      <trkpt lat="44.38893" lon="4.18294">
        <ele>216</ele>
        <time>2017-03-31T12:10:05Z</time>
      </trkpt>
      <trkpt lat="44.38891" lon="4.18293">
        <ele>217</ele>
        <time>2017-03-31T12:10:09Z</time>
      </trkpt>
      <trkpt lat="44.38889" lon="4.1829">
        <ele>217</ele>
        <time>2017-03-31T12:10:12Z</time>
      </trkpt>
      <trkpt lat="44.3889" lon="4.18286">
        <ele>217</ele>
        <time>2017-03-31T12:10:16Z</time>
      </trkpt>
      <trkpt lat="44.38892" lon="4.18284">
        <ele>218</ele>
        <time>2017-03-31T12:11:18Z</time>
      </trkpt>
      <trkpt lat="44.3891" lon="4.1826">
        <ele>222</ele>
        <time>2017-03-31T12:11:50Z</time>
      </trkpt>
      <trkpt lat="44.38912" lon="4.18257">
        <ele>222</ele>
        <time>2017-03-31T12:11:54Z</time>
      </trkpt>
      <trkpt lat="44.38915" lon="4.18248">
        <ele>223</ele>
        <time>2017-03-31T12:12:02Z</time>
      </trkpt>
      <trkpt lat="44.38916" lon="4.18244">
        <ele>224</ele>
        <time>2017-03-31T12:12:06Z</time>
      </trkpt>
      <trkpt lat="44.38921" lon="4.1824">
        <ele>224</ele>
        <time>2017-03-31T12:12:15Z</time>
      </trkpt>
      <trkpt lat="44.38931" lon="4.18225">
        <ele>225</ele>
        <time>2017-03-31T12:12:34Z</time>
      </trkpt>
      <trkpt lat="44.38932" lon="4.18221">
        <ele>224</ele>
        <time>2017-03-31T12:12:38Z</time>
      </trkpt>
      <trkpt lat="44.38936" lon="4.18214">
        <ele>224</ele>
        <time>2017-03-31T12:12:47Z</time>
      </trkpt>
      <trkpt lat="44.38949" lon="4.1819">
        <ele>225</ele>
        <time>2017-03-31T12:13:20Z</time>
      </trkpt>
      <trkpt lat="44.38955" lon="4.18183">
        <ele>225</ele>
        <time>2017-03-31T12:13:30Z</time>
      </trkpt>
      <trkpt lat="44.38967" lon="4.18162">
        <ele>229</ele>
        <time>2017-03-31T12:13:53Z</time>
      </trkpt>
      <trkpt lat="44.38987" lon="4.18143">
        <ele>231</ele>
        <time>2017-03-31T12:14:22Z</time>
      </trkpt>
      <trkpt lat="44.38999" lon="4.18135">
        <ele>232</ele>
        <time>2017-03-31T12:14:39Z</time>
      </trkpt>
      <trkpt lat="44.39008" lon="4.18122">
        <ele>231</ele>
        <time>2017-03-31T12:14:55Z</time>
      </trkpt>
      <trkpt lat="44.39009" lon="4.18118">
        <ele>231</ele>
        <time>2017-03-31T12:14:59Z</time>
      </trkpt>
      <trkpt lat="44.39008" lon="4.18109">
        <ele>232</ele>
        <time>2017-03-31T12:15:06Z</time>
      </trkpt>
      <trkpt lat="44.39012" lon="4.18097">
        <ele>233</ele>
        <time>2017-03-31T12:15:18Z</time>
      </trkpt>
      <trkpt lat="44.39019" lon="4.18076">
        <ele>235</ele>
        <time>2017-03-31T12:15:41Z</time>
      </trkpt>
      <trkpt lat="44.39035" lon="4.18046">
        <ele>237</ele>
        <time>2017-03-31T12:16:12Z</time>
      </trkpt>
      <trkpt lat="44.39037" lon="4.18043">
        <ele>237</ele>
        <time>2017-03-31T12:16:15Z</time>
      </trkpt>
      <trkpt lat="44.39038" lon="4.18034">
        <ele>236</ele>
        <time>2017-03-31T12:16:22Z</time>
      </trkpt>
      <trkpt lat="44.3904" lon="4.18012">
        <ele>235</ele>
        <time>2017-03-31T12:16:37Z</time>
      </trkpt>
      <trkpt lat="44.39038" lon="4.18004">
        <ele>234</ele>
        <time>2017-03-31T12:16:43Z</time>
      </trkpt>
      <trkpt lat="44.39035" lon="4.17995">
        <ele>233</ele>
        <time>2017-03-31T12:16:50Z</time>
      </trkpt>
      <trkpt lat="44.39032" lon="4.17987">
        <ele>233</ele>
        <time>2017-03-31T12:16:56Z</time>
      </trkpt>
      <trkpt lat="44.39025" lon="4.17977">
        <ele>232</ele>
        <time>2017-03-31T12:17:06Z</time>
      </trkpt>
      <trkpt lat="44.3902" lon="4.17972">
        <ele>231</ele>
        <time>2017-03-31T12:17:12Z</time>
      </trkpt>
      <trkpt lat="44.39017" lon="4.17972">
        <ele>231</ele>
        <time>2017-03-31T12:17:16Z</time>
      </trkpt>
      <trkpt lat="44.39015" lon="4.1797">
        <ele>231</ele>
        <time>2017-03-31T12:17:23Z</time>
      </trkpt>
      <trkpt lat="44.39013" lon="4.17967">
        <ele>232</ele>
        <time>2017-03-31T12:18:46Z</time>
      </trkpt>
      <trkpt lat="44.39014" lon="4.17963">
        <ele>232</ele>
        <time>2017-03-31T12:18:54Z</time>
      </trkpt>
      <trkpt lat="44.39013" lon="4.17959">
        <ele>234</ele>
        <time>2017-03-31T12:19:01Z</time>
      </trkpt>
      <trkpt lat="44.39014" lon="4.17956">
        <ele>235</ele>
        <time>2017-03-31T12:19:21Z</time>
      </trkpt>
      <trkpt lat="44.39015" lon="4.17953">
        <ele>234</ele>
        <time>2017-03-31T12:19:30Z</time>
      </trkpt>
      <trkpt lat="44.39018" lon="4.1795">
        <ele>232</ele>
        <time>2017-03-31T12:19:39Z</time>
      </trkpt>
      <trkpt lat="44.39018" lon="4.17946">
        <ele>231</ele>
        <time>2017-03-31T12:19:41Z</time>
      </trkpt>
      <trkpt lat="44.39021" lon="4.17944">
        <ele>230</ele>
        <time>2017-03-31T12:19:45Z</time>
      </trkpt>
      <trkpt lat="44.39022" lon="4.1794">
        <ele>229</ele>
        <time>2017-03-31T12:19:48Z</time>
      </trkpt>
      <trkpt lat="44.39022" lon="4.17936">
        <ele>229</ele>
        <time>2017-03-31T12:19:51Z</time>
      </trkpt>
      <trkpt lat="44.39031" lon="4.17924">
        <ele>230</ele>
        <time>2017-03-31T12:20:06Z</time>
      </trkpt>
      <trkpt lat="44.39034" lon="4.17924">
        <ele>230</ele>
        <time>2017-03-31T12:20:10Z</time>
      </trkpt>
      <trkpt lat="44.39035" lon="4.1792">
        <ele>230</ele>
        <time>2017-03-31T12:20:13Z</time>
      </trkpt>
      <trkpt lat="44.39037" lon="4.17917">
        <ele>230</ele>
        <time>2017-03-31T12:20:17Z</time>
      </trkpt>
      <trkpt lat="44.3904" lon="4.17916">
        <ele>230</ele>
        <time>2017-03-31T12:20:22Z</time>
      </trkpt>
      <trkpt lat="44.39042" lon="4.17913">
        <ele>229</ele>
        <time>2017-03-31T12:20:28Z</time>
      </trkpt>
      <trkpt lat="44.39054" lon="4.17908">
        <ele>229</ele>
        <time>2017-03-31T12:20:49Z</time>
      </trkpt>
      <trkpt lat="44.39067" lon="4.17917">
        <ele>229</ele>
        <time>2017-03-31T12:21:14Z</time>
      </trkpt>
      <trkpt lat="44.39078" lon="4.17942">
        <ele>226</ele>
        <time>2017-03-31T12:21:47Z</time>
      </trkpt>
      <trkpt lat="44.39079" lon="4.17947">
        <ele>225</ele>
        <time>2017-03-31T12:21:52Z</time>
      </trkpt>
      <trkpt lat="44.39082" lon="4.17948">
        <ele>225</ele>
        <time>2017-03-31T12:21:59Z</time>
      </trkpt>
      <trkpt lat="44.39083" lon="4.17952">
        <ele>224</ele>
        <time>2017-03-31T12:22:03Z</time>
      </trkpt>
      <trkpt lat="44.39084" lon="4.17956">
        <ele>223</ele>
        <time>2017-03-31T12:22:07Z</time>
      </trkpt>
      <trkpt lat="44.39086" lon="4.17958">
        <ele>223</ele>
        <time>2017-03-31T12:22:11Z</time>
      </trkpt>
      <trkpt lat="44.39092" lon="4.17961">
        <ele>221</ele>
        <time>2017-03-31T12:22:18Z</time>
      </trkpt>
      <trkpt lat="44.39094" lon="4.17964">
        <ele>221</ele>
        <time>2017-03-31T12:22:22Z</time>
      </trkpt>
      <trkpt lat="44.39095" lon="4.17973">
        <ele>222</ele>
        <time>2017-03-31T12:22:30Z</time>
      </trkpt>
      <trkpt lat="44.39093" lon="4.17985">
        <ele>221</ele>
        <time>2017-03-31T12:22:43Z</time>
      </trkpt>
      <trkpt lat="44.39093" lon="4.17994">
        <ele>222</ele>
        <time>2017-03-31T12:22:53Z</time>
      </trkpt>
      <trkpt lat="44.39094" lon="4.17998">
        <ele>221</ele>
        <time>2017-03-31T12:23:00Z</time>
      </trkpt>
      <trkpt lat="44.39098" lon="4.18004">
        <ele>220</ele>
        <time>2017-03-31T12:23:09Z</time>
      </trkpt>
      <trkpt lat="44.39098" lon="4.18008">
        <ele>220</ele>
        <time>2017-03-31T12:23:14Z</time>
      </trkpt>
      <trkpt lat="44.39099" lon="4.18012">
        <ele>221</ele>
        <time>2017-03-31T12:23:24Z</time>
      </trkpt>
      <trkpt lat="44.39104" lon="4.18028">
        <ele>220</ele>
        <time>2017-03-31T12:23:50Z</time>
      </trkpt>
      <trkpt lat="44.39109" lon="4.18031">
        <ele>221</ele>
        <time>2017-03-31T12:24:06Z</time>
      </trkpt>
      <trkpt lat="44.39112" lon="4.18031">
        <ele>220</ele>
        <time>2017-03-31T12:24:10Z</time>
      </trkpt>
      <trkpt lat="44.39115" lon="4.18029">
        <ele>220</ele>
        <time>2017-03-31T12:24:15Z</time>
      </trkpt>
      <trkpt lat="44.39125" lon="4.18038">
        <ele>218</ele>
        <time>2017-03-31T12:24:41Z</time>
      </trkpt>
      <trkpt lat="44.39128" lon="4.18038">
        <ele>218</ele>
        <time>2017-03-31T12:24:48Z</time>
      </trkpt>
      <trkpt lat="44.39132" lon="4.18043">
        <ele>217</ele>
        <time>2017-03-31T12:25:14Z</time>
      </trkpt>
      <trkpt lat="44.39134" lon="4.1804">
        <ele>215</ele>
        <time>2017-03-31T12:25:22Z</time>
      </trkpt>
      <trkpt lat="44.39137" lon="4.1804">
        <ele>215</ele>
        <time>2017-03-31T12:25:25Z</time>
      </trkpt>
      <trkpt lat="44.39143" lon="4.18042">
        <ele>214</ele>
        <time>2017-03-31T12:25:32Z</time>
      </trkpt>
      <trkpt lat="44.39149" lon="4.18047">
        <ele>214</ele>
        <time>2017-03-31T12:25:41Z</time>
      </trkpt>
      <trkpt lat="44.39152" lon="4.18046">
        <ele>214</ele>
        <time>2017-03-31T12:25:44Z</time>
      </trkpt>
      <trkpt lat="44.39161" lon="4.1805">
        <ele>213</ele>
        <time>2017-03-31T12:25:57Z</time>
      </trkpt>
      <trkpt lat="44.39163" lon="4.18052">
        <ele>213</ele>
        <time>2017-03-31T12:26:02Z</time>
      </trkpt>
      <trkpt lat="44.39166" lon="4.1805">
        <ele>213</ele>
        <time>2017-03-31T12:26:07Z</time>
      </trkpt>
      <trkpt lat="44.39169" lon="4.18052">
        <ele>213</ele>
        <time>2017-03-31T12:26:11Z</time>
      </trkpt>
      <trkpt lat="44.39169" lon="4.18056">
        <ele>212</ele>
        <time>2017-03-31T12:26:19Z</time>
      </trkpt>
      <trkpt lat="44.39169" lon="4.1806">
        <ele>211</ele>
        <time>2017-03-31T12:26:24Z</time>
      </trkpt>
      <trkpt lat="44.39171" lon="4.18063">
        <ele>211</ele>
        <time>2017-03-31T12:26:28Z</time>
      </trkpt>
      <trkpt lat="44.39168" lon="4.18065">
        <ele>211</ele>
        <time>2017-03-31T12:26:32Z</time>
      </trkpt>
      <trkpt lat="44.39165" lon="4.18066">
        <ele>212</ele>
        <time>2017-03-31T12:27:22Z</time>
      </trkpt>
      <trkpt lat="44.39157" lon="4.18064">
        <ele>213</ele>
        <time>2017-03-31T12:27:26Z</time>
      </trkpt>
      <trkpt lat="44.39153" lon="4.18059">
        <ele>212</ele>
        <time>2017-03-31T12:27:33Z</time>
      </trkpt>
      <trkpt lat="44.3915" lon="4.1806">
        <ele>211</ele>
        <time>2017-03-31T12:27:37Z</time>
      </trkpt>
      <trkpt lat="44.39147" lon="4.18057">
        <ele>211</ele>
        <time>2017-03-31T12:27:53Z</time>
      </trkpt>
      <trkpt lat="44.39145" lon="4.18062">
        <ele>211</ele>
        <time>2017-03-31T12:27:57Z</time>
      </trkpt>
      <trkpt lat="44.39144" lon="4.18065">
        <ele>210</ele>
        <time>2017-03-31T12:29:11Z</time>
      </trkpt>
      <trkpt lat="44.39142" lon="4.18067">
        <ele>210</ele>
        <time>2017-03-31T12:29:23Z</time>
      </trkpt>
      <trkpt lat="44.3914" lon="4.18059">
        <ele>211</ele>
        <time>2017-03-31T12:30:06Z</time>
      </trkpt>
      <trkpt lat="44.39143" lon="4.18057">
        <ele>209</ele>
        <time>2017-03-31T12:30:27Z</time>
      </trkpt>
      <trkpt lat="44.39143" lon="4.18062">
        <ele>209</ele>
        <time>2017-03-31T12:30:55Z</time>
      </trkpt>
      <trkpt lat="44.39141" lon="4.1806">
        <ele>212</ele>
        <time>2017-03-31T12:31:19Z</time>
      </trkpt>
      <trkpt lat="44.39141" lon="4.18057">
        <ele>214</ele>
        <time>2017-03-31T12:31:48Z</time>
      </trkpt>
      <trkpt lat="44.39146" lon="4.18053">
        <ele>214</ele>
        <time>2017-03-31T12:31:57Z</time>
      </trkpt>
      <trkpt lat="44.39146" lon="4.18048">
        <ele>212</ele>
        <time>2017-03-31T12:32:03Z</time>
      </trkpt>
      <trkpt lat="44.39147" lon="4.18043">
        <ele>216</ele>
        <time>2017-03-31T12:32:25Z</time>
      </trkpt>
      <trkpt lat="44.39151" lon="4.18038">
        <ele>215</ele>
        <time>2017-03-31T12:32:42Z</time>
      </trkpt>
      <trkpt lat="44.39152" lon="4.18038">
        <ele>213</ele>
        <time>2017-03-31T12:33:00Z</time>
      </trkpt>
      <trkpt lat="44.39152" lon="4.18034">
        <ele>212</ele>
        <time>2017-03-31T12:33:21Z</time>
      </trkpt>
      <trkpt lat="44.39152" lon="4.1803">
        <ele>212</ele>
        <time>2017-03-31T12:33:28Z</time>
      </trkpt>
      <trkpt lat="44.39149" lon="4.18029">
        <ele>212</ele>
        <time>2017-03-31T12:33:41Z</time>
      </trkpt>
      <trkpt lat="44.39143" lon="4.18026">
        <ele>214</ele>
        <time>2017-03-31T12:33:52Z</time>
      </trkpt>
      <trkpt lat="44.39141" lon="4.18025">
        <ele>214</ele>
        <time>2017-03-31T12:33:57Z</time>
      </trkpt>
      <trkpt lat="44.39138" lon="4.18027">
        <ele>214</ele>
        <time>2017-03-31T12:34:02Z</time>
      </trkpt>
      <trkpt lat="44.39136" lon="4.18025">
        <ele>214</ele>
        <time>2017-03-31T12:34:11Z</time>
      </trkpt>
      <trkpt lat="44.39131" lon="4.1802">
        <ele>214</ele>
        <time>2017-03-31T12:34:18Z</time>
      </trkpt>
      <trkpt lat="44.39132" lon="4.18016">
        <ele>214</ele>
        <time>2017-03-31T12:34:24Z</time>
      </trkpt>
      <trkpt lat="44.3913" lon="4.18014">
        <ele>213</ele>
        <time>2017-03-31T12:34:40Z</time>
      </trkpt>
      <trkpt lat="44.39134" lon="4.18013">
        <ele>212</ele>
        <time>2017-03-31T12:35:37Z</time>
      </trkpt>
      <trkpt lat="44.39141" lon="4.17998">
        <ele>212</ele>
        <time>2017-03-31T12:36:28Z</time>
      </trkpt>
      <trkpt lat="44.39142" lon="4.17994">
        <ele>208</ele>
        <time>2017-03-31T12:37:29Z</time>
      </trkpt>
      <trkpt lat="44.39141" lon="4.17991">
        <ele>209</ele>
        <time>2017-03-31T12:37:42Z</time>
      </trkpt>
      <trkpt lat="44.39141" lon="4.17986">
        <ele>209</ele>
        <time>2017-03-31T12:37:47Z</time>
      </trkpt>
      <trkpt lat="44.39139" lon="4.17978">
        <ele>209</ele>
        <time>2017-03-31T12:37:54Z</time>
      </trkpt>
      <trkpt lat="44.39139" lon="4.17973">
        <ele>207</ele>
        <time>2017-03-31T12:37:58Z</time>
      </trkpt>
      <trkpt lat="44.39137" lon="4.17971">
        <ele>207</ele>
        <time>2017-03-31T12:38:17Z</time>
      </trkpt>
      <trkpt lat="44.39136" lon="4.17965">
        <ele>206</ele>
        <time>2017-03-31T12:38:48Z</time>
      </trkpt>
      <trkpt lat="44.39135" lon="4.17959">
        <ele>206</ele>
        <time>2017-03-31T12:38:52Z</time>
      </trkpt>
      <trkpt lat="44.39138" lon="4.17957">
        <ele>205</ele>
        <time>2017-03-31T12:39:06Z</time>
      </trkpt>
      <trkpt lat="44.39138" lon="4.17953">
        <ele>205</ele>
        <time>2017-03-31T12:39:13Z</time>
      </trkpt>
      <trkpt lat="44.39141" lon="4.17951">
        <ele>206</ele>
        <time>2017-03-31T12:40:02Z</time>
      </trkpt>
      <trkpt lat="44.39145" lon="4.17951">
        <ele>206</ele>
        <time>2017-03-31T12:40:13Z</time>
      </trkpt>
      <trkpt lat="44.39142" lon="4.1794">
        <ele>210</ele>
        <time>2017-03-31T12:40:57Z</time>
      </trkpt>
      <trkpt lat="44.39146" lon="4.17932">
        <ele>211</ele>
        <time>2017-03-31T12:41:18Z</time>
      </trkpt>
      <trkpt lat="44.39148" lon="4.1793">
        <ele>213</ele>
        <time>2017-03-31T12:43:13Z</time>
      </trkpt>
      <trkpt lat="44.39149" lon="4.17926">
        <ele>212</ele>
        <time>2017-03-31T12:43:38Z</time>
      </trkpt>
      <trkpt lat="44.3915" lon="4.17921">
        <ele>210</ele>
        <time>2017-03-31T12:44:23Z</time>
      </trkpt>
      <trkpt lat="44.39151" lon="4.17917">
        <ele>207</ele>
        <time>2017-03-31T12:44:29Z</time>
      </trkpt>
      <trkpt lat="44.3915" lon="4.17913">
        <ele>205</ele>
        <time>2017-03-31T12:44:41Z</time>
      </trkpt>
      <trkpt lat="44.39151" lon="4.17909">
        <ele>204</ele>
        <time>2017-03-31T12:44:46Z</time>
      </trkpt>
      <trkpt lat="44.39151" lon="4.17904">
        <ele>205</ele>
        <time>2017-03-31T12:44:54Z</time>
      </trkpt>
      <trkpt lat="44.39153" lon="4.179">
        <ele>204</ele>
        <time>2017-03-31T12:45:03Z</time>
      </trkpt>
      <trkpt lat="44.39156" lon="4.17901">
        <ele>204</ele>
        <time>2017-03-31T12:45:06Z</time>
      </trkpt>
      <trkpt lat="44.39158" lon="4.17905">
        <ele>204</ele>
        <time>2017-03-31T12:45:11Z</time>
      </trkpt>
      <trkpt lat="44.39162" lon="4.17903">
        <ele>204</ele>
        <time>2017-03-31T12:45:19Z</time>
      </trkpt>
      <trkpt lat="44.39164" lon="4.17905">
        <ele>204</ele>
        <time>2017-03-31T12:45:28Z</time>
      </trkpt>
      <trkpt lat="44.39168" lon="4.17904">
        <ele>204</ele>
        <time>2017-03-31T12:45:39Z</time>
      </trkpt>
      <trkpt lat="44.3917" lon="4.17905">
        <ele>204</ele>
        <time>2017-03-31T12:45:51Z</time>
      </trkpt>
      <trkpt lat="44.39175" lon="4.17903">
        <ele>204</ele>
        <time>2017-03-31T12:45:58Z</time>
      </trkpt>
      <trkpt lat="44.39177" lon="4.17902">
        <ele>207</ele>
        <time>2017-03-31T12:46:04Z</time>
      </trkpt>
      <trkpt lat="44.3918" lon="4.17894">
        <ele>208</ele>
        <time>2017-03-31T12:46:13Z</time>
      </trkpt>
      <trkpt lat="44.39181" lon="4.17891">
        <ele>208</ele>
        <time>2017-03-31T12:47:10Z</time>
      </trkpt>
      <trkpt lat="44.3919" lon="4.17892">
        <ele>209</ele>
        <time>2017-03-31T12:51:44Z</time>
      </trkpt>
      <trkpt lat="44.39199" lon="4.17889">
        <ele>212</ele>
        <time>2017-03-31T12:52:33Z</time>
      </trkpt>
      <trkpt lat="44.39199" lon="4.17876">
        <ele>212</ele>
        <time>2017-03-31T12:52:51Z</time>
      </trkpt>
      <trkpt lat="44.39202" lon="4.17867">
        <ele>213</ele>
        <time>2017-03-31T12:53:05Z</time>
      </trkpt>
      <trkpt lat="44.39204" lon="4.17863">
        <ele>214</ele>
        <time>2017-03-31T12:53:11Z</time>
      </trkpt>
      <trkpt lat="44.39201" lon="4.17861">
        <ele>215</ele>
        <time>2017-03-31T12:53:43Z</time>
      </trkpt>
      <trkpt lat="44.39199" lon="4.17857">
        <ele>215</ele>
        <time>2017-03-31T12:53:46Z</time>
      </trkpt>
      <trkpt lat="44.39198" lon="4.17854">
        <ele>214</ele>
        <time>2017-03-31T12:53:52Z</time>
      </trkpt>
      <trkpt lat="44.392" lon="4.1785">
        <ele>214</ele>
        <time>2017-03-31T12:54:03Z</time>
      </trkpt>
      <trkpt lat="44.39206" lon="4.17845">
        <ele>212</ele>
        <time>2017-03-31T12:54:24Z</time>
      </trkpt>
      <trkpt lat="44.39208" lon="4.17841">
        <ele>212</ele>
        <time>2017-03-31T12:54:27Z</time>
      </trkpt>
      <trkpt lat="44.39206" lon="4.1784">
        <ele>213</ele>
        <time>2017-03-31T12:54:32Z</time>
      </trkpt>
      <trkpt lat="44.39196" lon="4.17837">
        <ele>212</ele>
        <time>2017-03-31T12:54:45Z</time>
      </trkpt>
      <trkpt lat="44.39195" lon="4.17832">
        <ele>211</ele>
        <time>2017-03-31T12:55:22Z</time>
      </trkpt>
      <trkpt lat="44.39194" lon="4.17828">
        <ele>210</ele>
        <time>2017-03-31T12:55:36Z</time>
      </trkpt>
      <trkpt lat="44.39196" lon="4.17825">
        <ele>210</ele>
        <time>2017-03-31T12:55:48Z</time>
      </trkpt>
      <trkpt lat="44.39194" lon="4.17821">
        <ele>209</ele>
        <time>2017-03-31T12:55:53Z</time>
      </trkpt>
      <trkpt lat="44.39194" lon="4.17817">
        <ele>208</ele>
        <time>2017-03-31T12:55:58Z</time>
      </trkpt>
      <trkpt lat="44.39199" lon="4.17807">
        <ele>208</ele>
        <time>2017-03-31T12:56:11Z</time>
      </trkpt>
      <trkpt lat="44.39199" lon="4.17803">
        <ele>207</ele>
        <time>2017-03-31T12:56:20Z</time>
      </trkpt>
      <trkpt lat="44.39203" lon="4.17797">
        <ele>207</ele>
        <time>2017-03-31T12:56:31Z</time>
      </trkpt>
      <trkpt lat="44.39206" lon="4.17797">
        <ele>207</ele>
        <time>2017-03-31T12:56:34Z</time>
      </trkpt>
      <trkpt lat="44.39221" lon="4.17796">
        <ele>210</ele>
        <time>2017-03-31T12:56:51Z</time>
      </trkpt>
      <trkpt lat="44.39223" lon="4.17792">
        <ele>211</ele>
        <time>2017-03-31T12:56:58Z</time>
      </trkpt>
      <trkpt lat="44.39226" lon="4.17793">
        <ele>212</ele>
        <time>2017-03-31T12:57:02Z</time>
      </trkpt>
      <trkpt lat="44.39234" lon="4.17789">
        <ele>212</ele>
        <time>2017-03-31T12:57:15Z</time>
      </trkpt>
      <trkpt lat="44.39237" lon="4.17791">
        <ele>213</ele>
        <time>2017-03-31T12:57:19Z</time>
      </trkpt>
      <trkpt lat="44.39237" lon="4.17795">
        <ele>213</ele>
        <time>2017-03-31T12:57:23Z</time>
      </trkpt>
      <trkpt lat="44.3924" lon="4.17796">
        <ele>213</ele>
        <time>2017-03-31T12:57:26Z</time>
      </trkpt>
      <trkpt lat="44.39243" lon="4.17796">
        <ele>213</ele>
        <time>2017-03-31T12:57:30Z</time>
      </trkpt>
      <trkpt lat="44.39243" lon="4.178">
        <ele>214</ele>
        <time>2017-03-31T12:57:36Z</time>
      </trkpt>
      <trkpt lat="44.39247" lon="4.17799">
        <ele>215</ele>
        <time>2017-03-31T12:57:44Z</time>
      </trkpt>
      <trkpt lat="44.39253" lon="4.17793">
        <ele>213</ele>
        <time>2017-03-31T12:57:50Z</time>
      </trkpt>
      <trkpt lat="44.39255" lon="4.17789">
        <ele>213</ele>
        <time>2017-03-31T12:57:55Z</time>
      </trkpt>
      <trkpt lat="44.3926" lon="4.17785">
        <ele>214</ele>
        <time>2017-03-31T12:58:03Z</time>
      </trkpt>
      <trkpt lat="44.39263" lon="4.17785">
        <ele>215</ele>
        <time>2017-03-31T12:58:07Z</time>
      </trkpt>
      <trkpt lat="44.39269" lon="4.17786">
        <ele>215</ele>
        <time>2017-03-31T12:58:15Z</time>
      </trkpt>
      <trkpt lat="44.39272" lon="4.17787">
        <ele>215</ele>
        <time>2017-03-31T12:58:19Z</time>
      </trkpt>
      <trkpt lat="44.3928" lon="4.17786">
        <ele>215</ele>
        <time>2017-03-31T12:58:34Z</time>
      </trkpt>
      <trkpt lat="44.39282" lon="4.17783">
        <ele>216</ele>
        <time>2017-03-31T12:58:37Z</time>
      </trkpt>
      <trkpt lat="44.39293" lon="4.17775">
        <ele>214</ele>
        <time>2017-03-31T12:59:04Z</time>
      </trkpt>
      <trkpt lat="44.39296" lon="4.17769">
        <ele>212</ele>
        <time>2017-03-31T12:59:10Z</time>
      </trkpt>
      <trkpt lat="44.39297" lon="4.17765">
        <ele>212</ele>
        <time>2017-03-31T12:59:14Z</time>
      </trkpt>
      <trkpt lat="44.393" lon="4.17766">
        <ele>211</ele>
        <time>2017-03-31T13:02:22Z</time>
      </trkpt>
      <trkpt lat="44.39309" lon="4.17762">
        <ele>213</ele>
        <time>2017-03-31T13:02:53Z</time>
      </trkpt>
      <trkpt lat="44.39314" lon="4.1776">
        <ele>212</ele>
        <time>2017-03-31T13:03:02Z</time>
      </trkpt>
      <trkpt lat="44.39316" lon="4.17757">
        <ele>212</ele>
        <time>2017-03-31T13:03:10Z</time>
      </trkpt>
      <trkpt lat="44.39316" lon="4.17753">
        <ele>211</ele>
        <time>2017-03-31T13:03:14Z</time>
      </trkpt>
      <trkpt lat="44.39315" lon="4.17749">
        <ele>210</ele>
        <time>2017-03-31T13:03:18Z</time>
      </trkpt>
      <trkpt lat="44.39315" lon="4.17736">
        <ele>207</ele>
        <time>2017-03-31T13:03:56Z</time>
      </trkpt>
      <trkpt lat="44.39314" lon="4.17733">
        <ele>206</ele>
        <time>2017-03-31T13:03:59Z</time>
      </trkpt>
      <trkpt lat="44.39314" lon="4.17729">
        <ele>205</ele>
        <time>2017-03-31T13:04:05Z</time>
      </trkpt>
      <trkpt lat="44.3931" lon="4.17729">
        <ele>205</ele>
        <time>2017-03-31T13:04:09Z</time>
      </trkpt>
      <trkpt lat="44.39308" lon="4.17726">
        <ele>204</ele>
        <time>2017-03-31T13:04:13Z</time>
      </trkpt>
      <trkpt lat="44.39308" lon="4.17722">
        <ele>204</ele>
        <time>2017-03-31T13:04:17Z</time>
      </trkpt>
      <trkpt lat="44.39306" lon="4.17718">
        <ele>204</ele>
        <time>2017-03-31T13:04:22Z</time>
      </trkpt>
      <trkpt lat="44.39303" lon="4.17707">
        <ele>203</ele>
        <time>2017-03-31T13:04:34Z</time>
      </trkpt>
      <trkpt lat="44.39304" lon="4.17704">
        <ele>203</ele>
        <time>2017-03-31T13:05:25Z</time>
      </trkpt>
      <trkpt lat="44.39303" lon="4.177">
        <ele>203</ele>
        <time>2017-03-31T13:05:39Z</time>
      </trkpt>
      <trkpt lat="44.39302" lon="4.17696">
        <ele>202</ele>
        <time>2017-03-31T13:05:43Z</time>
      </trkpt>
      <trkpt lat="44.39305" lon="4.17694">
        <ele>204</ele>
        <time>2017-03-31T13:06:00Z</time>
      </trkpt>
      <trkpt lat="44.39306" lon="4.1769">
        <ele>207</ele>
        <time>2017-03-31T13:06:11Z</time>
      </trkpt>
      <trkpt lat="44.39308" lon="4.17688">
        <ele>207</ele>
        <time>2017-03-31T13:06:21Z</time>
      </trkpt>
      <trkpt lat="44.39312" lon="4.17682">
        <ele>210</ele>
        <time>2017-03-31T13:06:32Z</time>
      </trkpt>
      <trkpt lat="44.39313" lon="4.17679">
        <ele>209</ele>
        <time>2017-03-31T13:06:42Z</time>
      </trkpt>
      <trkpt lat="44.39313" lon="4.17675">
        <ele>209</ele>
        <time>2017-03-31T13:06:47Z</time>
      </trkpt>
      <trkpt lat="44.39314" lon="4.1767">
        <ele>209</ele>
        <time>2017-03-31T13:06:51Z</time>
      </trkpt>
      <trkpt lat="44.39315" lon="4.17667">
        <ele>209</ele>
        <time>2017-03-31T13:06:54Z</time>
      </trkpt>
      <trkpt lat="44.39308" lon="4.1767">
        <ele>209</ele>
        <time>2017-03-31T13:07:02Z</time>
      </trkpt>
      <trkpt lat="44.39306" lon="4.17671">
        <ele>207</ele>
        <time>2017-03-31T13:07:05Z</time>
      </trkpt>
      <trkpt lat="44.39303" lon="4.17672">
        <ele>207</ele>
        <time>2017-03-31T13:07:09Z</time>
      </trkpt>
      <trkpt lat="44.39295" lon="4.17675">
        <ele>207</ele>
        <time>2017-03-31T13:07:24Z</time>
      </trkpt>
      <trkpt lat="44.3929" lon="4.17671">
        <ele>208</ele>
        <time>2017-03-31T13:07:40Z</time>
      </trkpt>
      <trkpt lat="44.39288" lon="4.17668">
        <ele>208</ele>
        <time>2017-03-31T13:07:47Z</time>
      </trkpt>
      <trkpt lat="44.39285" lon="4.17667">
        <ele>208</ele>
        <time>2017-03-31T13:07:52Z</time>
      </trkpt>
      <trkpt lat="44.39275" lon="4.17667">
        <ele>208</ele>
        <time>2017-03-31T13:08:05Z</time>
      </trkpt>
      <trkpt lat="44.39272" lon="4.17666">
        <ele>209</ele>
        <time>2017-03-31T13:10:28Z</time>
      </trkpt>
      <trkpt lat="44.3927" lon="4.17667">
        <ele>209</ele>
        <time>2017-03-31T13:10:40Z</time>
      </trkpt>
      <trkpt lat="44.39267" lon="4.17666">
        <ele>210</ele>
        <time>2017-03-31T13:10:46Z</time>
      </trkpt>
      <trkpt lat="44.39261" lon="4.17669">
        <ele>209</ele>
        <time>2017-03-31T13:10:53Z</time>
      </trkpt>
      <trkpt lat="44.39256" lon="4.17669">
        <ele>208</ele>
        <time>2017-03-31T13:11:00Z</time>
      </trkpt>
      <trkpt lat="44.39254" lon="4.17666">
        <ele>209</ele>
        <time>2017-03-31T13:11:11Z</time>
      </trkpt>
      <trkpt lat="44.39248" lon="4.17669">
        <ele>210</ele>
        <time>2017-03-31T13:11:21Z</time>
      </trkpt>
      <trkpt lat="44.39244" lon="4.17676">
        <ele>211</ele>
        <time>2017-03-31T13:11:37Z</time>
      </trkpt>
      <trkpt lat="44.39232" lon="4.17679">
        <ele>212</ele>
        <time>2017-03-31T13:11:54Z</time>
      </trkpt>
      <trkpt lat="44.39229" lon="4.17677">
        <ele>212</ele>
        <time>2017-03-31T13:11:59Z</time>
      </trkpt>
      <trkpt lat="44.39226" lon="4.17677">
        <ele>212</ele>
        <time>2017-03-31T13:12:08Z</time>
      </trkpt>
      <trkpt lat="44.39224" lon="4.17676">
        <ele>212</ele>
        <time>2017-03-31T13:12:21Z</time>
      </trkpt>
      <trkpt lat="44.39221" lon="4.17677">
        <ele>213</ele>
        <time>2017-03-31T13:12:29Z</time>
      </trkpt>
      <trkpt lat="44.39218" lon="4.17677">
        <ele>213</ele>
        <time>2017-03-31T13:12:37Z</time>
      </trkpt>
      <trkpt lat="44.39215" lon="4.17675">
        <ele>213</ele>
        <time>2017-03-31T13:12:41Z</time>
      </trkpt>
      <trkpt lat="44.39212" lon="4.17675">
        <ele>212</ele>
        <time>2017-03-31T13:12:45Z</time>
      </trkpt>
      <trkpt lat="44.39211" lon="4.17679">
        <ele>212</ele>
        <time>2017-03-31T13:12:49Z</time>
      </trkpt>
      <trkpt lat="44.39207" lon="4.1768">
        <ele>212</ele>
        <time>2017-03-31T13:12:53Z</time>
      </trkpt>
      <trkpt lat="44.39195" lon="4.17682">
        <ele>213</ele>
        <time>2017-03-31T13:13:06Z</time>
      </trkpt>
      <trkpt lat="44.39187" lon="4.17685">
        <ele>212</ele>
        <time>2017-03-31T13:13:19Z</time>
      </trkpt>
      <trkpt lat="44.39186" lon="4.17689">
        <ele>212</ele>
        <time>2017-03-31T13:13:35Z</time>
      </trkpt>
      <trkpt lat="44.39184" lon="4.17691">
        <ele>213</ele>
        <time>2017-03-31T13:14:50Z</time>
      </trkpt>
      <trkpt lat="44.39181" lon="4.17692">
        <ele>212</ele>
        <time>2017-03-31T13:15:07Z</time>
      </trkpt>
      <trkpt lat="44.39178" lon="4.17694">
        <ele>211</ele>
        <time>2017-03-31T13:15:11Z</time>
      </trkpt>
      <trkpt lat="44.39175" lon="4.17695">
        <ele>211</ele>
        <time>2017-03-31T13:15:18Z</time>
      </trkpt>
      <trkpt lat="44.39173" lon="4.17697">
        <ele>210</ele>
        <time>2017-03-31T13:15:39Z</time>
      </trkpt>
      <trkpt lat="44.3917" lon="4.17695">
        <ele>211</ele>
        <time>2017-03-31T13:16:04Z</time>
      </trkpt>
      <trkpt lat="44.39164" lon="4.17695">
        <ele>209</ele>
        <time>2017-03-31T13:16:19Z</time>
      </trkpt>
      <trkpt lat="44.39162" lon="4.17697">
        <ele>209</ele>
        <time>2017-03-31T13:16:25Z</time>
      </trkpt>
      <trkpt lat="44.39159" lon="4.17698">
        <ele>208</ele>
        <time>2017-03-31T13:16:32Z</time>
      </trkpt>
      <trkpt lat="44.39154" lon="4.17703">
        <ele>208</ele>
        <time>2017-03-31T13:16:54Z</time>
      </trkpt>
      <trkpt lat="44.39154" lon="4.17711">
        <ele>209</ele>
        <time>2017-03-31T13:17:03Z</time>
      </trkpt>
      <trkpt lat="44.39156" lon="4.1771">
        <ele>208</ele>
        <time>2017-03-31T13:18:47Z</time>
      </trkpt>
      <trkpt lat="44.39159" lon="4.17711">
        <ele>206</ele>
        <time>2017-03-31T13:18:50Z</time>
      </trkpt>
      <trkpt lat="44.3916" lon="4.17724">
        <ele>205</ele>
        <time>2017-03-31T13:19:01Z</time>
      </trkpt>
      <trkpt lat="44.39158" lon="4.17727">
        <ele>204</ele>
        <time>2017-03-31T13:19:15Z</time>
      </trkpt>
      <trkpt lat="44.39155" lon="4.17734">
        <ele>204</ele>
        <time>2017-03-31T13:19:23Z</time>
      </trkpt>
      <trkpt lat="44.39157" lon="4.17737">
        <ele>205</ele>
        <time>2017-03-31T13:19:27Z</time>
      </trkpt>
      <trkpt lat="44.39167" lon="4.17744">
        <ele>205</ele>
        <time>2017-03-31T13:19:56Z</time>
      </trkpt>
      <trkpt lat="44.39172" lon="4.17748">
        <ele>206</ele>
        <time>2017-03-31T13:20:30Z</time>
      </trkpt>
      <trkpt lat="44.3917" lon="4.17743">
        <ele>207</ele>
        <time>2017-03-31T13:21:42Z</time>
      </trkpt>
      <trkpt lat="44.39166" lon="4.17745">
        <ele>207</ele>
        <time>2017-03-31T13:21:53Z</time>
      </trkpt>
      <trkpt lat="44.39166" lon="4.17743">
        <ele>209</ele>
        <time>2017-03-31T13:23:25Z</time>
      </trkpt>
      <trkpt lat="44.39165" lon="4.17735">
        <ele>209</ele>
        <time>2017-03-31T13:23:44Z</time>
      </trkpt>
      <trkpt lat="44.39163" lon="4.17733">
        <ele>208</ele>
        <time>2017-03-31T13:25:57Z</time>
      </trkpt>
      <trkpt lat="44.39166" lon="4.17725">
        <ele>208</ele>
        <time>2017-03-31T13:26:08Z</time>
      </trkpt>
      <trkpt lat="44.39167" lon="4.17721">
        <ele>208</ele>
        <time>2017-03-31T13:26:11Z</time>
      </trkpt>
      <trkpt lat="44.39165" lon="4.17717">
        <ele>208</ele>
        <time>2017-03-31T13:26:22Z</time>
      </trkpt>
      <trkpt lat="44.39166" lon="4.17711">
        <ele>208</ele>
        <time>2017-03-31T13:26:31Z</time>
      </trkpt>
      <trkpt lat="44.39161" lon="4.17709">
        <ele>208</ele>
        <time>2017-03-31T13:26:36Z</time>
      </trkpt>
      <trkpt lat="44.39153" lon="4.17707">
        <ele>207</ele>
        <time>2017-03-31T13:26:45Z</time>
      </trkpt>
      <trkpt lat="44.39153" lon="4.17703">
        <ele>206</ele>
        <time>2017-03-31T13:26:58Z</time>
      </trkpt>
      <trkpt lat="44.39149" lon="4.17696">
        <ele>205</ele>
        <time>2017-03-31T13:27:16Z</time>
      </trkpt>
      <trkpt lat="44.39146" lon="4.17696">
        <ele>205</ele>
        <time>2017-03-31T13:27:19Z</time>
      </trkpt>
      <trkpt lat="44.39144" lon="4.17697">
        <ele>206</ele>
        <time>2017-03-31T13:27:43Z</time>
      </trkpt>
      <trkpt lat="44.39139" lon="4.17699">
        <ele>206</ele>
        <time>2017-03-31T13:28:50Z</time>
      </trkpt>
      <trkpt lat="44.39136" lon="4.177">
        <ele>208</ele>
        <time>2017-03-31T13:28:56Z</time>
      </trkpt>
      <trkpt lat="44.39133" lon="4.177">
        <ele>209</ele>
        <time>2017-03-31T13:29:01Z</time>
      </trkpt>
      <trkpt lat="44.39129" lon="4.17693">
        <ele>209</ele>
        <time>2017-03-31T13:29:15Z</time>
      </trkpt>
      <trkpt lat="44.39126" lon="4.17693">
        <ele>208</ele>
        <time>2017-03-31T13:29:18Z</time>
      </trkpt>
      <trkpt lat="44.39124" lon="4.17691">
        <ele>209</ele>
        <time>2017-03-31T13:29:21Z</time>
      </trkpt>
      <trkpt lat="44.39123" lon="4.17687">
        <ele>209</ele>
        <time>2017-03-31T13:29:26Z</time>
      </trkpt>
      <trkpt lat="44.3912" lon="4.17688">
        <ele>209</ele>
        <time>2017-03-31T13:29:38Z</time>
      </trkpt>
      <trkpt lat="44.39117" lon="4.17691">
        <ele>210</ele>
        <time>2017-03-31T13:29:44Z</time>
      </trkpt>
      <trkpt lat="44.39115" lon="4.17692">
        <ele>210</ele>
        <time>2017-03-31T13:30:10Z</time>
      </trkpt>
      <trkpt lat="44.39112" lon="4.17695">
        <ele>212</ele>
        <time>2017-03-31T13:31:09Z</time>
      </trkpt>
      <trkpt lat="44.39109" lon="4.17694">
        <ele>213</ele>
        <time>2017-03-31T13:31:13Z</time>
      </trkpt>
      <trkpt lat="44.39107" lon="4.17693">
        <ele>212</ele>
        <time>2017-03-31T13:31:17Z</time>
      </trkpt>
      <trkpt lat="44.39104" lon="4.17694">
        <ele>212</ele>
        <time>2017-03-31T13:31:21Z</time>
      </trkpt>
      <trkpt lat="44.39101" lon="4.17696">
        <ele>212</ele>
        <time>2017-03-31T13:31:25Z</time>
      </trkpt>
      <trkpt lat="44.39099" lon="4.17693">
        <ele>211</ele>
        <time>2017-03-31T13:31:30Z</time>
      </trkpt>
      <trkpt lat="44.39096" lon="4.17691">
        <ele>211</ele>
        <time>2017-03-31T13:31:36Z</time>
      </trkpt>
      <trkpt lat="44.39094" lon="4.17694">
        <ele>211</ele>
        <time>2017-03-31T13:31:46Z</time>
      </trkpt>
      <trkpt lat="44.39091" lon="4.17696">
        <ele>211</ele>
        <time>2017-03-31T13:31:51Z</time>
      </trkpt>
      <trkpt lat="44.3909" lon="4.177">
        <ele>211</ele>
        <time>2017-03-31T13:31:59Z</time>
      </trkpt>
      <trkpt lat="44.39087" lon="4.177">
        <ele>212</ele>
        <time>2017-03-31T13:32:06Z</time>
      </trkpt>
      <trkpt lat="44.39078" lon="4.17703">
        <ele>212</ele>
        <time>2017-03-31T13:32:30Z</time>
      </trkpt>
      <trkpt lat="44.39076" lon="4.17702">
        <ele>213</ele>
        <time>2017-03-31T13:32:37Z</time>
      </trkpt>
      <trkpt lat="44.39073" lon="4.17702">
        <ele>212</ele>
        <time>2017-03-31T13:32:41Z</time>
      </trkpt>
      <trkpt lat="44.39064" lon="4.17702">
        <ele>213</ele>
        <time>2017-03-31T13:32:57Z</time>
      </trkpt>
      <trkpt lat="44.39062" lon="4.17699">
        <ele>213</ele>
        <time>2017-03-31T13:33:03Z</time>
      </trkpt>
      <trkpt lat="44.39059" lon="4.17698">
        <ele>213</ele>
        <time>2017-03-31T13:33:12Z</time>
      </trkpt>
      <trkpt lat="44.39056" lon="4.177">
        <ele>214</ele>
        <time>2017-03-31T13:33:18Z</time>
      </trkpt>
      <trkpt lat="44.39051" lon="4.17703">
        <ele>215</ele>
        <time>2017-03-31T13:33:31Z</time>
      </trkpt>
      <trkpt lat="44.39049" lon="4.17705">
        <ele>216</ele>
        <time>2017-03-31T13:33:37Z</time>
      </trkpt>
      <trkpt lat="44.39048" lon="4.17709">
        <ele>216</ele>
        <time>2017-03-31T13:33:44Z</time>
      </trkpt>
      <trkpt lat="44.39047" lon="4.17713">
        <ele>216</ele>
        <time>2017-03-31T13:33:53Z</time>
      </trkpt>
      <trkpt lat="44.39042" lon="4.17715">
        <ele>216</ele>
        <time>2017-03-31T13:34:00Z</time>
      </trkpt>
      <trkpt lat="44.39036" lon="4.17716">
        <ele>217</ele>
        <time>2017-03-31T13:34:09Z</time>
      </trkpt>
      <trkpt lat="44.39021" lon="4.17715">
        <ele>216</ele>
        <time>2017-03-31T13:34:26Z</time>
      </trkpt>
      <trkpt lat="44.39018" lon="4.17714">
        <ele>216</ele>
        <time>2017-03-31T13:34:30Z</time>
      </trkpt>
      <trkpt lat="44.39009" lon="4.17717">
        <ele>216</ele>
        <time>2017-03-31T13:34:42Z</time>
      </trkpt>
      <trkpt lat="44.39008" lon="4.17721">
        <ele>217</ele>
        <time>2017-03-31T13:34:46Z</time>
      </trkpt>
      <trkpt lat="44.39007" lon="4.17725">
        <ele>217</ele>
        <time>2017-03-31T13:34:50Z</time>
      </trkpt>
      <trkpt lat="44.39007" lon="4.1773">
        <ele>218</ele>
        <time>2017-03-31T13:34:54Z</time>
      </trkpt>
      <trkpt lat="44.3901" lon="4.17737">
        <ele>218</ele>
        <time>2017-03-31T13:35:02Z</time>
      </trkpt>
      <trkpt lat="44.39017" lon="4.17741">
        <ele>218</ele>
        <time>2017-03-31T13:35:10Z</time>
      </trkpt>
      <trkpt lat="44.39028" lon="4.17745">
        <ele>219</ele>
        <time>2017-03-31T13:35:24Z</time>
      </trkpt>
      <trkpt lat="44.39031" lon="4.17752">
        <ele>220</ele>
        <time>2017-03-31T13:35:31Z</time>
      </trkpt>
      <trkpt lat="44.39032" lon="4.17756">
        <ele>220</ele>
        <time>2017-03-31T13:35:36Z</time>
      </trkpt>
      <trkpt lat="44.39034" lon="4.17759">
        <ele>221</ele>
        <time>2017-03-31T13:35:41Z</time>
      </trkpt>
      <trkpt lat="44.39037" lon="4.17758">
        <ele>221</ele>
        <time>2017-03-31T13:36:41Z</time>
      </trkpt>
      <trkpt lat="44.39038" lon="4.17762">
        <ele>222</ele>
        <time>2017-03-31T13:36:46Z</time>
      </trkpt>
      <trkpt lat="44.39037" lon="4.17766">
        <ele>223</ele>
        <time>2017-03-31T13:36:53Z</time>
      </trkpt>
      <trkpt lat="44.39032" lon="4.17776">
        <ele>220</ele>
        <time>2017-03-31T13:37:07Z</time>
      </trkpt>
      <trkpt lat="44.39026" lon="4.17797">
        <ele>220</ele>
        <time>2017-03-31T13:37:39Z</time>
      </trkpt>
      <trkpt lat="44.39021" lon="4.17813">
        <ele>218</ele>
        <time>2017-03-31T13:37:57Z</time>
      </trkpt>
      <trkpt lat="44.39022" lon="4.17817">
        <ele>218</ele>
        <time>2017-03-31T13:38:01Z</time>
      </trkpt>
      <trkpt lat="44.39019" lon="4.1782">
        <ele>219</ele>
        <time>2017-03-31T13:38:06Z</time>
      </trkpt>
      <trkpt lat="44.39014" lon="4.17822">
        <ele>219</ele>
        <time>2017-03-31T13:38:14Z</time>
      </trkpt>
      <trkpt lat="44.39008" lon="4.17822">
        <ele>218</ele>
        <time>2017-03-31T13:38:22Z</time>
      </trkpt>
      <trkpt lat="44.39001" lon="4.1783">
        <ele>218</ele>
        <time>2017-03-31T13:38:35Z</time>
      </trkpt>
      <trkpt lat="44.38991" lon="4.17839">
        <ele>220</ele>
        <time>2017-03-31T13:38:54Z</time>
      </trkpt>
      <trkpt lat="44.38988" lon="4.1784">
        <ele>221</ele>
        <time>2017-03-31T13:38:59Z</time>
      </trkpt>
      <trkpt lat="44.38985" lon="4.17838">
        <ele>220</ele>
        <time>2017-03-31T13:39:03Z</time>
      </trkpt>
      <trkpt lat="44.3898" lon="4.17842">
        <ele>221</ele>
        <time>2017-03-31T13:39:13Z</time>
      </trkpt>
      <trkpt lat="44.38977" lon="4.17844">
        <ele>222</ele>
        <time>2017-03-31T13:39:17Z</time>
      </trkpt>
      <trkpt lat="44.38971" lon="4.17846">
        <ele>221</ele>
        <time>2017-03-31T13:39:24Z</time>
      </trkpt>
      <trkpt lat="44.38956" lon="4.17847">
        <ele>221</ele>
        <time>2017-03-31T13:39:43Z</time>
      </trkpt>
      <trkpt lat="44.38954" lon="4.17849">
        <ele>220</ele>
        <time>2017-03-31T13:39:47Z</time>
      </trkpt>
      <trkpt lat="44.38942" lon="4.17853">
        <ele>219</ele>
        <time>2017-03-31T13:40:06Z</time>
      </trkpt>
      <trkpt lat="44.38939" lon="4.17854">
        <ele>219</ele>
        <time>2017-03-31T13:40:09Z</time>
      </trkpt>
      <trkpt lat="44.38934" lon="4.17858">
        <ele>219</ele>
        <time>2017-03-31T13:40:18Z</time>
      </trkpt>
      <trkpt lat="44.38923" lon="4.17873">
        <ele>219</ele>
        <time>2017-03-31T13:40:37Z</time>
      </trkpt>
      <trkpt lat="44.38911" lon="4.17903">
        <ele>219</ele>
        <time>2017-03-31T13:41:06Z</time>
      </trkpt>
      <trkpt lat="44.38898" lon="4.17922">
        <ele>218</ele>
        <time>2017-03-31T13:41:29Z</time>
      </trkpt>
      <trkpt lat="44.38896" lon="4.17936">
        <ele>218</ele>
        <time>2017-03-31T13:41:39Z</time>
      </trkpt>
      <trkpt lat="44.38889" lon="4.17974">
        <ele>216</ele>
        <time>2017-03-31T13:42:10Z</time>
      </trkpt>
      <trkpt lat="44.38886" lon="4.17995">
        <ele>218</ele>
        <time>2017-03-31T13:42:28Z</time>
      </trkpt>
      <trkpt lat="44.38883" lon="4.17998">
        <ele>218</ele>
        <time>2017-03-31T13:42:32Z</time>
      </trkpt>
      <trkpt lat="44.38881" lon="4.18007">
        <ele>218</ele>
        <time>2017-03-31T13:42:41Z</time>
      </trkpt>
      <trkpt lat="44.38877" lon="4.1802">
        <ele>217</ele>
        <time>2017-03-31T13:42:53Z</time>
      </trkpt>
      <trkpt lat="44.3886" lon="4.18044">
        <ele>217</ele>
        <time>2017-03-31T13:43:26Z</time>
      </trkpt>
      <trkpt lat="44.38864" lon="4.18056">
        <ele>216</ele>
        <time>2017-03-31T13:43:36Z</time>
      </trkpt>
      <trkpt lat="44.38866" lon="4.18075">
        <ele>215</ele>
        <time>2017-03-31T13:43:51Z</time>
      </trkpt>
      <trkpt lat="44.38866" lon="4.18092">
        <ele>216</ele>
        <time>2017-03-31T13:44:06Z</time>
      </trkpt>
      <trkpt lat="44.38866" lon="4.18105">
        <ele>216</ele>
        <time>2017-03-31T13:44:17Z</time>
      </trkpt>
      <trkpt lat="44.38864" lon="4.18126">
        <ele>216</ele>
        <time>2017-03-31T13:44:37Z</time>
      </trkpt>
      <trkpt lat="44.38862" lon="4.18156">
        <ele>216</ele>
        <time>2017-03-31T13:45:02Z</time>
      </trkpt>
      <trkpt lat="44.38862" lon="4.18165">
        <ele>216</ele>
        <time>2017-03-31T13:45:09Z</time>
      </trkpt>
      <trkpt lat="44.38861" lon="4.18178">
        <ele>216</ele>
        <time>2017-03-31T13:45:20Z</time>
      </trkpt>
      <trkpt lat="44.38856" lon="4.18189">
        <ele>216</ele>
        <time>2017-03-31T13:45:32Z</time>
      </trkpt>
      <trkpt lat="44.38846" lon="4.18205">
        <ele>215</ele>
        <time>2017-03-31T13:45:49Z</time>
      </trkpt>
      <trkpt lat="44.38842" lon="4.18227">
        <ele>215</ele>
        <time>2017-03-31T13:46:06Z</time>
      </trkpt>
      <trkpt lat="44.3883" lon="4.18252">
        <ele>216</ele>
        <time>2017-03-31T13:46:28Z</time>
      </trkpt>
      <trkpt lat="44.38827" lon="4.18252">
        <ele>215</ele>
        <time>2017-03-31T13:46:31Z</time>
      </trkpt>
      <trkpt lat="44.38823" lon="4.18259">
        <ele>215</ele>
        <time>2017-03-31T13:46:37Z</time>
      </trkpt>
      <trkpt lat="44.38821" lon="4.18277">
        <ele>214</ele>
        <time>2017-03-31T13:46:49Z</time>
      </trkpt>
      <trkpt lat="44.3882" lon="4.18318">
        <ele>214</ele>
        <time>2017-03-31T13:47:17Z</time>
      </trkpt>
      <trkpt lat="44.38817" lon="4.18339">
        <ele>215</ele>
        <time>2017-03-31T13:47:34Z</time>
      </trkpt>
      <trkpt lat="44.3882" lon="4.18351">
        <ele>219</ele>
        <time>2017-03-31T13:49:09Z</time>
      </trkpt>
      <trkpt lat="44.38822" lon="4.18365">
        <ele>218</ele>
        <time>2017-03-31T13:49:21Z</time>
      </trkpt>
      <trkpt lat="44.38822" lon="4.18373">
        <ele>219</ele>
        <time>2017-03-31T13:49:32Z</time>
      </trkpt>
      <trkpt lat="44.38823" lon="4.18395">
        <ele>218</ele>
        <time>2017-03-31T13:50:00Z</time>
      </trkpt>
      <trkpt lat="44.38824" lon="4.18403">
        <ele>219</ele>
        <time>2017-03-31T13:50:08Z</time>
      </trkpt>
      <trkpt lat="44.38822" lon="4.18416">
        <ele>219</ele>
        <time>2017-03-31T13:50:20Z</time>
      </trkpt>
      <trkpt lat="44.3882" lon="4.18432">
        <ele>220</ele>
        <time>2017-03-31T13:50:44Z</time>
      </trkpt>
      <trkpt lat="44.38819" lon="4.18462">
        <ele>220</ele>
        <time>2017-03-31T13:51:14Z</time>
      </trkpt>
      <trkpt lat="44.38819" lon="4.18466">
        <ele>220</ele>
        <time>2017-03-31T13:51:18Z</time>
      </trkpt>
      <trkpt lat="44.38816" lon="4.18468">
        <ele>220</ele>
        <time>2017-03-31T13:52:02Z</time>
      </trkpt>
      <trkpt lat="44.38815" lon="4.18484">
        <ele>219</ele>
        <time>2017-03-31T13:52:15Z</time>
      </trkpt>
      <trkpt lat="44.38812" lon="4.18486">
        <ele>219</ele>
        <time>2017-03-31T13:52:25Z</time>
      </trkpt>
      <trkpt lat="44.38809" lon="4.18494">
        <ele>218</ele>
        <time>2017-03-31T13:52:31Z</time>
      </trkpt>
      <trkpt lat="44.38806" lon="4.18501">
        <ele>218</ele>
        <time>2017-03-31T13:52:37Z</time>
      </trkpt>
      <trkpt lat="44.38804" lon="4.1851">
        <ele>218</ele>
        <time>2017-03-31T13:52:43Z</time>
      </trkpt>
      <trkpt lat="44.38801" lon="4.18523">
        <ele>217</ele>
        <time>2017-03-31T13:52:52Z</time>
      </trkpt>
      <trkpt lat="44.38795" lon="4.18532">
        <ele>216</ele>
        <time>2017-03-31T13:53:01Z</time>
      </trkpt>
      <trkpt lat="44.3879" lon="4.18537">
        <ele>216</ele>
        <time>2017-03-31T13:53:09Z</time>
      </trkpt>
      <trkpt lat="44.38791" lon="4.18541">
        <ele>216</ele>
        <time>2017-03-31T13:53:12Z</time>
      </trkpt>
      <trkpt lat="44.38793" lon="4.18545">
        <ele>217</ele>
        <time>2017-03-31T13:53:17Z</time>
      </trkpt>
      <trkpt lat="44.388" lon="4.18554">
        <ele>218</ele>
        <time>2017-03-31T13:53:27Z</time>
      </trkpt>
      <trkpt lat="44.38805" lon="4.18558">
        <ele>217</ele>
        <time>2017-03-31T13:53:33Z</time>
      </trkpt>
      <trkpt lat="44.3881" lon="4.18563">
        <ele>217</ele>
        <time>2017-03-31T13:53:39Z</time>
      </trkpt>
      <trkpt lat="44.38826" lon="4.18589">
        <ele>216</ele>
        <time>2017-03-31T13:54:07Z</time>
      </trkpt>
      <trkpt lat="44.38833" lon="4.18598">
        <ele>217</ele>
        <time>2017-03-31T13:54:18Z</time>
      </trkpt>
      <trkpt lat="44.38837" lon="4.18604">
        <ele>217</ele>
        <time>2017-03-31T13:54:25Z</time>
      </trkpt>
      <trkpt lat="44.38839" lon="4.18607">
        <ele>217</ele>
        <time>2017-03-31T13:54:29Z</time>
      </trkpt>
      <trkpt lat="44.3885" lon="4.18598">
        <ele>218</ele>
        <time>2017-03-31T13:54:42Z</time>
      </trkpt>
      <trkpt lat="44.38853" lon="4.186">
        <ele>217</ele>
        <time>2017-03-31T13:54:46Z</time>
      </trkpt>
      <trkpt lat="44.38858" lon="4.18616">
        <ele>217</ele>
        <time>2017-03-31T13:55:01Z</time>
      </trkpt>
      <trkpt lat="44.38863" lon="4.18641">
        <ele>219</ele>
        <time>2017-03-31T13:55:23Z</time>
      </trkpt>
      <trkpt lat="44.38865" lon="4.18649">
        <ele>219</ele>
        <time>2017-03-31T13:55:29Z</time>
      </trkpt>
      <trkpt lat="44.38865" lon="4.18654">
        <ele>219</ele>
        <time>2017-03-31T13:55:33Z</time>
      </trkpt>
      <trkpt lat="44.38863" lon="4.18662">
        <ele>219</ele>
        <time>2017-03-31T13:55:41Z</time>
      </trkpt>
      <trkpt lat="44.38864" lon="4.18666">
        <ele>219</ele>
        <time>2017-03-31T13:55:44Z</time>
      </trkpt>
      <trkpt lat="44.38877" lon="4.1867">
        <ele>219</ele>
        <time>2017-03-31T13:55:59Z</time>
      </trkpt>
      <trkpt lat="44.38886" lon="4.18666">
        <ele>218</ele>
        <time>2017-03-31T13:56:08Z</time>
      </trkpt>
      <trkpt lat="44.38887" lon="4.18663">
        <ele>218</ele>
        <time>2017-03-31T13:56:11Z</time>
      </trkpt>
      <trkpt lat="44.38891" lon="4.18663">
        <ele>218</ele>
        <time>2017-03-31T13:56:15Z</time>
      </trkpt>
      <trkpt lat="44.38897" lon="4.18665">
        <ele>218</ele>
        <time>2017-03-31T13:56:23Z</time>
      </trkpt>
      <trkpt lat="44.38904" lon="4.18665">
        <ele>218</ele>
        <time>2017-03-31T13:56:31Z</time>
      </trkpt>
      <trkpt lat="44.38913" lon="4.18661">
        <ele>217</ele>
        <time>2017-03-31T13:56:43Z</time>
      </trkpt>
      <trkpt lat="44.38931" lon="4.18671">
        <ele>217</ele>
        <time>2017-03-31T13:57:05Z</time>
      </trkpt>
      <trkpt lat="44.38932" lon="4.18675">
        <ele>217</ele>
        <time>2017-03-31T13:57:09Z</time>
      </trkpt>
      <trkpt lat="44.38928" lon="4.18691">
        <ele>218</ele>
        <time>2017-03-31T13:57:24Z</time>
      </trkpt>
      <trkpt lat="44.38929" lon="4.18699">
        <ele>218</ele>
        <time>2017-03-31T13:57:32Z</time>
      </trkpt>
      <trkpt lat="44.38933" lon="4.18705">
        <ele>218</ele>
        <time>2017-03-31T13:57:39Z</time>
      </trkpt>
      <trkpt lat="44.38945" lon="4.1871">
        <ele>217</ele>
        <time>2017-03-31T13:57:54Z</time>
      </trkpt>
      <trkpt lat="44.38952" lon="4.1872">
        <ele>216</ele>
        <time>2017-03-31T13:58:04Z</time>
      </trkpt>
      <trkpt lat="44.38957" lon="4.18726">
        <ele>216</ele>
        <time>2017-03-31T13:58:10Z</time>
      </trkpt>
      <trkpt lat="44.3896" lon="4.18738">
        <ele>216</ele>
        <time>2017-03-31T13:58:19Z</time>
      </trkpt>
      <trkpt lat="44.38957" lon="4.18746">
        <ele>215</ele>
        <time>2017-03-31T13:58:28Z</time>
      </trkpt>
      <trkpt lat="44.38955" lon="4.18749">
        <ele>215</ele>
        <time>2017-03-31T13:58:32Z</time>
      </trkpt>
      <trkpt lat="44.38955" lon="4.18753">
        <ele>215</ele>
        <time>2017-03-31T13:58:36Z</time>
      </trkpt>
      <trkpt lat="44.38957" lon="4.18762">
        <ele>215</ele>
        <time>2017-03-31T13:58:43Z</time>
      </trkpt>
      <trkpt lat="44.38962" lon="4.18774">
        <ele>215</ele>
        <time>2017-03-31T13:58:52Z</time>
      </trkpt>
      <trkpt lat="44.38961" lon="4.18783">
        <ele>216</ele>
        <time>2017-03-31T13:58:59Z</time>
      </trkpt>
      <trkpt lat="44.38959" lon="4.18817">
        <ele>217</ele>
        <time>2017-03-31T13:59:26Z</time>
      </trkpt>
      <trkpt lat="44.38955" lon="4.18824">
        <ele>217</ele>
        <time>2017-03-31T13:59:34Z</time>
      </trkpt>
      <trkpt lat="44.38949" lon="4.18834">
        <ele>216</ele>
        <time>2017-03-31T13:59:44Z</time>
      </trkpt>
      <trkpt lat="44.38947" lon="4.18847">
        <ele>216</ele>
        <time>2017-03-31T13:59:54Z</time>
      </trkpt>
      <trkpt lat="44.38946" lon="4.18851">
        <ele>216</ele>
        <time>2017-03-31T13:59:57Z</time>
      </trkpt>
      <trkpt lat="44.38945" lon="4.18854">
        <ele>216</ele>
        <time>2017-03-31T14:00:00Z</time>
      </trkpt>
      <trkpt lat="44.38938" lon="4.18859">
        <ele>215</ele>
        <time>2017-03-31T14:00:08Z</time>
      </trkpt>
      <trkpt lat="44.38933" lon="4.18859">
        <ele>215</ele>
        <time>2017-03-31T14:00:15Z</time>
      </trkpt>
      <trkpt lat="44.3893" lon="4.18857">
        <ele>215</ele>
        <time>2017-03-31T14:00:19Z</time>
      </trkpt>
      <trkpt lat="44.38927" lon="4.18849">
        <ele>215</ele>
        <time>2017-03-31T14:00:27Z</time>
      </trkpt>
      <trkpt lat="44.38925" lon="4.18841">
        <ele>214</ele>
        <time>2017-03-31T14:00:35Z</time>
      </trkpt>
      <trkpt lat="44.38919" lon="4.18839">
        <ele>214</ele>
        <time>2017-03-31T14:00:41Z</time>
      </trkpt>
      <trkpt lat="44.38912" lon="4.18839">
        <ele>213</ele>
        <time>2017-03-31T14:00:48Z</time>
      </trkpt>
      <trkpt lat="44.38904" lon="4.18847">
        <ele>213</ele>
        <time>2017-03-31T14:00:57Z</time>
      </trkpt>
      <trkpt lat="44.38903" lon="4.18852">
        <ele>213</ele>
        <time>2017-03-31T14:01:00Z</time>
      </trkpt>
      <trkpt lat="44.38903" lon="4.18856">
        <ele>213</ele>
        <time>2017-03-31T14:01:03Z</time>
      </trkpt>
      <trkpt lat="44.38901" lon="4.1887">
        <ele>212</ele>
        <time>2017-03-31T14:01:13Z</time>
      </trkpt>
      <trkpt lat="44.389" lon="4.18883">
        <ele>211</ele>
        <time>2017-03-31T14:01:22Z</time>
      </trkpt>
      <trkpt lat="44.38901" lon="4.18897">
        <ele>212</ele>
        <time>2017-03-31T14:01:31Z</time>
      </trkpt>
      <trkpt lat="44.38895" lon="4.18906">
        <ele>212</ele>
        <time>2017-03-31T14:01:41Z</time>
      </trkpt>
      <trkpt lat="44.38884" lon="4.18915">
        <ele>211</ele>
        <time>2017-03-31T14:01:53Z</time>
      </trkpt>
      <trkpt lat="44.38872" lon="4.18916">
        <ele>211</ele>
        <time>2017-03-31T14:02:06Z</time>
      </trkpt>
      <trkpt lat="44.38862" lon="4.18931">
        <ele>212</ele>
        <time>2017-03-31T14:02:18Z</time>
      </trkpt>
      <trkpt lat="44.38857" lon="4.1893">
        <ele>212</ele>
        <time>2017-03-31T14:02:24Z</time>
      </trkpt>
      <trkpt lat="44.38851" lon="4.18927">
        <ele>211</ele>
        <time>2017-03-31T14:02:30Z</time>
      </trkpt>
      <trkpt lat="44.38848" lon="4.18927">
        <ele>211</ele>
        <time>2017-03-31T14:02:34Z</time>
      </trkpt>
      <trkpt lat="44.38847" lon="4.18935">
        <ele>211</ele>
        <time>2017-03-31T14:02:40Z</time>
      </trkpt>
      <trkpt lat="44.38846" lon="4.18953">
        <ele>211</ele>
        <time>2017-03-31T14:02:52Z</time>
      </trkpt>
      <trkpt lat="44.38848" lon="4.1897">
        <ele>211</ele>
        <time>2017-03-31T14:03:04Z</time>
      </trkpt>
      <trkpt lat="44.38842" lon="4.18985">
        <ele>209</ele>
        <time>2017-03-31T14:03:20Z</time>
      </trkpt>
      <trkpt lat="44.38839" lon="4.18991">
        <ele>209</ele>
        <time>2017-03-31T14:03:26Z</time>
      </trkpt>
      <trkpt lat="44.38839" lon="4.18999">
        <ele>209</ele>
        <time>2017-03-31T14:03:32Z</time>
      </trkpt>
      <trkpt lat="44.38838" lon="4.19008">
        <ele>208</ele>
        <time>2017-03-31T14:03:39Z</time>
      </trkpt>
      <trkpt lat="44.38835" lon="4.19021">
        <ele>208</ele>
        <time>2017-03-31T14:03:51Z</time>
      </trkpt>
      <trkpt lat="44.38837" lon="4.19024">
        <ele>208</ele>
        <time>2017-03-31T14:03:54Z</time>
      </trkpt>
      <trkpt lat="44.38842" lon="4.19024">
        <ele>207</ele>
        <time>2017-03-31T14:04:00Z</time>
      </trkpt>
      <trkpt lat="44.38845" lon="4.19027">
        <ele>207</ele>
        <time>2017-03-31T14:04:04Z</time>
      </trkpt>
      <trkpt lat="44.38846" lon="4.19031">
        <ele>207</ele>
        <time>2017-03-31T14:04:08Z</time>
      </trkpt>
      <trkpt lat="44.38845" lon="4.19036">
        <ele>207</ele>
        <time>2017-03-31T14:04:12Z</time>
      </trkpt>
      <trkpt lat="44.38843" lon="4.19039">
        <ele>207</ele>
        <time>2017-03-31T14:04:17Z</time>
      </trkpt>
      <trkpt lat="44.38841" lon="4.19041">
        <ele>207</ele>
        <time>2017-03-31T14:04:21Z</time>
      </trkpt>
      <trkpt lat="44.38838" lon="4.19041">
        <ele>207</ele>
        <time>2017-03-31T14:04:25Z</time>
      </trkpt>
      <trkpt lat="44.38836" lon="4.19044">
        <ele>207</ele>
        <time>2017-03-31T14:04:31Z</time>
      </trkpt>
      <trkpt lat="44.38833" lon="4.19046">
        <ele>207</ele>
        <time>2017-03-31T14:04:36Z</time>
      </trkpt>
      <trkpt lat="44.38835" lon="4.19058">
        <ele>207</ele>
        <time>2017-03-31T14:06:09Z</time>
      </trkpt>
      <trkpt lat="44.38833" lon="4.19061">
        <ele>208</ele>
        <time>2017-03-31T14:06:13Z</time>
      </trkpt>
      <trkpt lat="44.38832" lon="4.19065">
        <ele>207</ele>
        <time>2017-03-31T14:06:18Z</time>
      </trkpt>
      <trkpt lat="44.38823" lon="4.19077">
        <ele>207</ele>
        <time>2017-03-31T14:06:34Z</time>
      </trkpt>
      <trkpt lat="44.38816" lon="4.19085">
        <ele>206</ele>
        <time>2017-03-31T14:06:44Z</time>
      </trkpt>
      <trkpt lat="44.38812" lon="4.19106">
        <ele>204</ele>
        <time>2017-03-31T14:07:45Z</time>
      </trkpt>
      <trkpt lat="44.38812" lon="4.19111">
        <ele>204</ele>
        <time>2017-03-31T14:08:47Z</time>
      </trkpt>
      <trkpt lat="44.38811" lon="4.19124">
        <ele>204</ele>
        <time>2017-03-31T14:09:05Z</time>
      </trkpt>
      <trkpt lat="44.38808" lon="4.19136">
        <ele>204</ele>
        <time>2017-03-31T14:09:22Z</time>
      </trkpt>
      <trkpt lat="44.38807" lon="4.19152">
        <ele>204</ele>
        <time>2017-03-31T14:09:45Z</time>
      </trkpt>
      <trkpt lat="44.38803" lon="4.19162">
        <ele>203</ele>
        <time>2017-03-31T14:09:58Z</time>
      </trkpt>
      <trkpt lat="44.38797" lon="4.19165">
        <ele>203</ele>
        <time>2017-03-31T14:10:06Z</time>
      </trkpt>
      <trkpt lat="44.38795" lon="4.19167">
        <ele>203</ele>
        <time>2017-03-31T14:10:10Z</time>
      </trkpt>
      <trkpt lat="44.38792" lon="4.19174">
        <ele>203</ele>
        <time>2017-03-31T14:10:18Z</time>
      </trkpt>
      <trkpt lat="44.38787" lon="4.1919">
        <ele>201</ele>
        <time>2017-03-31T14:10:34Z</time>
      </trkpt>
      <trkpt lat="44.38789" lon="4.19199">
        <ele>201</ele>
        <time>2017-03-31T14:10:41Z</time>
      </trkpt>
      <trkpt lat="44.38789" lon="4.19207">
        <ele>201</ele>
        <time>2017-03-31T14:10:47Z</time>
      </trkpt>
      <trkpt lat="44.38785" lon="4.19228">
        <ele>200</ele>
        <time>2017-03-31T14:11:08Z</time>
      </trkpt>
      <trkpt lat="44.38787" lon="4.19235">
        <ele>200</ele>
        <time>2017-03-31T14:11:16Z</time>
      </trkpt>
      <trkpt lat="44.38789" lon="4.19238">
        <ele>199</ele>
        <time>2017-03-31T14:11:20Z</time>
      </trkpt>
      <trkpt lat="44.38796" lon="4.19241">
        <ele>199</ele>
        <time>2017-03-31T14:11:28Z</time>
      </trkpt>
      <trkpt lat="44.38808" lon="4.19238">
        <ele>199</ele>
        <time>2017-03-31T14:11:41Z</time>
      </trkpt>
      <trkpt lat="44.38811" lon="4.1924">
        <ele>199</ele>
        <time>2017-03-31T14:11:46Z</time>
      </trkpt>
      <trkpt lat="44.38834" lon="4.19225">
        <ele>201</ele>
        <time>2017-03-31T14:12:14Z</time>
      </trkpt>
      <trkpt lat="44.38837" lon="4.19229">
        <ele>200</ele>
        <time>2017-03-31T14:12:18Z</time>
      </trkpt>
      <trkpt lat="44.38836" lon="4.19237">
        <ele>200</ele>
        <time>2017-03-31T14:12:25Z</time>
      </trkpt>
      <trkpt lat="44.38836" lon="4.19246">
        <ele>200</ele>
        <time>2017-03-31T14:12:33Z</time>
      </trkpt>
      <trkpt lat="44.38838" lon="4.19251">
        <ele>199</ele>
        <time>2017-03-31T14:12:37Z</time>
      </trkpt>
      <trkpt lat="44.38843" lon="4.19255">
        <ele>199</ele>
        <time>2017-03-31T14:12:45Z</time>
      </trkpt>
      <trkpt lat="44.38855" lon="4.19262">
        <ele>199</ele>
        <time>2017-03-31T14:12:59Z</time>
      </trkpt>
      <trkpt lat="44.38862" lon="4.19276">
        <ele>199</ele>
        <time>2017-03-31T14:13:16Z</time>
      </trkpt>
      <trkpt lat="44.38885" lon="4.1926">
        <ele>199</ele>
        <time>2017-03-31T14:13:47Z</time>
      </trkpt>
      <trkpt lat="44.38912" lon="4.19248">
        <ele>199</ele>
        <time>2017-03-31T14:14:20Z</time>
      </trkpt>
      <trkpt lat="44.38924" lon="4.19236">
        <ele>202</ele>
        <time>2017-03-31T14:14:45Z</time>
      </trkpt>
      <trkpt lat="44.38931" lon="4.19227">
        <ele>201</ele>
        <time>2017-03-31T14:14:58Z</time>
      </trkpt>
      <trkpt lat="44.38947" lon="4.19205">
        <ele>198</ele>
        <time>2017-03-31T14:15:31Z</time>
      </trkpt>
      <trkpt lat="44.38958" lon="4.19201">
        <ele>198</ele>
        <time>2017-03-31T14:16:02Z</time>
      </trkpt>
      <trkpt lat="44.38962" lon="4.19201">
        <ele>198</ele>
        <time>2017-03-31T14:16:07Z</time>
      </trkpt>
      <trkpt lat="44.38963" lon="4.19198">
        <ele>198</ele>
        <time>2017-03-31T14:16:12Z</time>
      </trkpt>
      <trkpt lat="44.38969" lon="4.19196">
        <ele>197</ele>
        <time>2017-03-31T14:16:21Z</time>
      </trkpt>
      <trkpt lat="44.38972" lon="4.19195">
        <ele>197</ele>
        <time>2017-03-31T14:16:26Z</time>
      </trkpt>
      <trkpt lat="44.38978" lon="4.19197">
        <ele>197</ele>
        <time>2017-03-31T14:16:37Z</time>
      </trkpt>
      <trkpt lat="44.38993" lon="4.19182">
        <ele>192</ele>
        <time>2017-03-31T14:17:09Z</time>
      </trkpt>
      <trkpt lat="44.38999" lon="4.1918">
        <ele>191</ele>
        <time>2017-03-31T14:17:17Z</time>
      </trkpt>
      <trkpt lat="44.39005" lon="4.19181">
        <ele>190</ele>
        <time>2017-03-31T14:17:27Z</time>
      </trkpt>
      <trkpt lat="44.39021" lon="4.19168">
        <ele>187</ele>
        <time>2017-03-31T14:18:02Z</time>
      </trkpt>
      <trkpt lat="44.39032" lon="4.19161">
        <ele>184</ele>
        <time>2017-03-31T14:18:21Z</time>
      </trkpt>
      <trkpt lat="44.39035" lon="4.19161">
        <ele>184</ele>
        <time>2017-03-31T14:18:27Z</time>
      </trkpt>
      <trkpt lat="44.39037" lon="4.19165">
        <ele>184</ele>
        <time>2017-03-31T14:18:32Z</time>
      </trkpt>
      <trkpt lat="44.39044" lon="4.19166">
        <ele>182</ele>
        <time>2017-03-31T14:18:43Z</time>
      </trkpt>
      <trkpt lat="44.39049" lon="4.19163">
        <ele>181</ele>
        <time>2017-03-31T14:18:52Z</time>
      </trkpt>
      <trkpt lat="44.39052" lon="4.19161">
        <ele>181</ele>
        <time>2017-03-31T14:18:58Z</time>
      </trkpt>
      <trkpt lat="44.39055" lon="4.19154">
        <ele>179</ele>
        <time>2017-03-31T14:19:07Z</time>
      </trkpt>
      <trkpt lat="44.39054" lon="4.1915">
        <ele>178</ele>
        <time>2017-03-31T14:19:12Z</time>
      </trkpt>
      <trkpt lat="44.39055" lon="4.19146">
        <ele>177</ele>
        <time>2017-03-31T14:19:17Z</time>
      </trkpt>
      <trkpt lat="44.39054" lon="4.19142">
        <ele>176</ele>
        <time>2017-03-31T14:19:22Z</time>
      </trkpt>
      <trkpt lat="44.39052" lon="4.19134">
        <ele>175</ele>
        <time>2017-03-31T14:19:45Z</time>
      </trkpt>
      <trkpt lat="44.39051" lon="4.19112">
        <ele>174</ele>
        <time>2017-03-31T14:20:06Z</time>
      </trkpt>
      <trkpt lat="44.39048" lon="4.19105">
        <ele>174</ele>
        <time>2017-03-31T14:20:14Z</time>
      </trkpt>
      <trkpt lat="44.39048" lon="4.19097">
        <ele>174</ele>
        <time>2017-03-31T14:20:22Z</time>
      </trkpt>
      <trkpt lat="44.39049" lon="4.19071">
        <ele>175</ele>
        <time>2017-03-31T14:20:44Z</time>
      </trkpt>
      <trkpt lat="44.39047" lon="4.19068">
        <ele>175</ele>
        <time>2017-03-31T14:20:48Z</time>
      </trkpt>
      <trkpt lat="44.39045" lon="4.19064">
        <ele>175</ele>
        <time>2017-03-31T14:20:52Z</time>
      </trkpt>
      <trkpt lat="44.39046" lon="4.19059">
        <ele>175</ele>
        <time>2017-03-31T14:20:56Z</time>
      </trkpt>
      <trkpt lat="44.39051" lon="4.19048">
        <ele>175</ele>
        <time>2017-03-31T14:21:08Z</time>
      </trkpt>
      <trkpt lat="44.39051" lon="4.19044">
        <ele>175</ele>
        <time>2017-03-31T14:21:12Z</time>
      </trkpt>
      <trkpt lat="44.39052" lon="4.1904">
        <ele>176</ele>
        <time>2017-03-31T14:21:16Z</time>
      </trkpt>
      <trkpt lat="44.39055" lon="4.19038">
        <ele>176</ele>
        <time>2017-03-31T14:21:21Z</time>
      </trkpt>
      <trkpt lat="44.39056" lon="4.19034">
        <ele>176</ele>
        <time>2017-03-31T14:21:26Z</time>
      </trkpt>
      <trkpt lat="44.39061" lon="4.19023">
        <ele>176</ele>
        <time>2017-03-31T14:21:38Z</time>
      </trkpt>
      <trkpt lat="44.39064" lon="4.19021">
        <ele>176</ele>
        <time>2017-03-31T14:21:43Z</time>
      </trkpt>
      <trkpt lat="44.3908" lon="4.18996">
        <ele>178</ele>
        <time>2017-03-31T14:22:16Z</time>
      </trkpt>
      <trkpt lat="44.39105" lon="4.18974">
        <ele>181</ele>
        <time>2017-03-31T14:22:49Z</time>
      </trkpt>
      <trkpt lat="44.39128" lon="4.18964">
        <ele>184</ele>
        <time>2017-03-31T14:23:18Z</time>
      </trkpt>
      <trkpt lat="44.39154" lon="4.18966">
        <ele>186</ele>
        <time>2017-03-31T14:23:48Z</time>
      </trkpt>
      <trkpt lat="44.39168" lon="4.18974">
        <ele>185</ele>
        <time>2017-03-31T14:24:04Z</time>
      </trkpt>
      <trkpt lat="44.39178" lon="4.18969">
        <ele>185</ele>
        <time>2017-03-31T14:24:16Z</time>
      </trkpt>
      <trkpt lat="44.3918" lon="4.18972">
        <ele>185</ele>
        <time>2017-03-31T14:24:20Z</time>
      </trkpt>
      <trkpt lat="44.39183" lon="4.18979">
        <ele>185</ele>
        <time>2017-03-31T14:24:26Z</time>
      </trkpt>
      <trkpt lat="44.39198" lon="4.18983">
        <ele>185</ele>
        <time>2017-03-31T14:24:46Z</time>
      </trkpt>
      <trkpt lat="44.39209" lon="4.18985">
        <ele>186</ele>
        <time>2017-03-31T14:24:58Z</time>
      </trkpt>
      <trkpt lat="44.39224" lon="4.18991">
        <ele>186</ele>
        <time>2017-03-31T14:25:14Z</time>
      </trkpt>
      <trkpt lat="44.39237" lon="4.19003">
        <ele>185</ele>
        <time>2017-03-31T14:25:30Z</time>
      </trkpt>
      <trkpt lat="44.39251" lon="4.19008">
        <ele>185</ele>
        <time>2017-03-31T14:25:46Z</time>
      </trkpt>
      <trkpt lat="44.39278" lon="4.1902">
        <ele>185</ele>
        <time>2017-03-31T14:26:17Z</time>
      </trkpt>
      <trkpt lat="44.39287" lon="4.19025">
        <ele>185</ele>
        <time>2017-03-31T14:26:28Z</time>
      </trkpt>
      <trkpt lat="44.39299" lon="4.19032">
        <ele>185</ele>
        <time>2017-03-31T14:26:42Z</time>
      </trkpt>
      <trkpt lat="44.39324" lon="4.19026">
        <ele>187</ele>
        <time>2017-03-31T14:27:12Z</time>
      </trkpt>
      <trkpt lat="44.39346" lon="4.19006">
        <ele>186</ele>
        <time>2017-03-31T14:27:42Z</time>
      </trkpt>
      <trkpt lat="44.39358" lon="4.18998">
        <ele>188</ele>
        <time>2017-03-31T14:27:58Z</time>
      </trkpt>
      <trkpt lat="44.39361" lon="4.18998">
        <ele>189</ele>
        <time>2017-03-31T14:28:02Z</time>
      </trkpt>
      <trkpt lat="44.39364" lon="4.19005">
        <ele>189</ele>
        <time>2017-03-31T14:28:09Z</time>
      </trkpt>
      <trkpt lat="44.39368" lon="4.19022">
        <ele>190</ele>
        <time>2017-03-31T14:28:22Z</time>
      </trkpt>
      <trkpt lat="44.39366" lon="4.19051">
        <ele>189</ele>
        <time>2017-03-31T14:28:48Z</time>
      </trkpt>
      <trkpt lat="44.39362" lon="4.19087">
        <ele>189</ele>
        <time>2017-03-31T14:29:19Z</time>
      </trkpt>
      <trkpt lat="44.39355" lon="4.19122">
        <ele>190</ele>
        <time>2017-03-31T14:29:49Z</time>
      </trkpt>
      <trkpt lat="44.39351" lon="4.19138">
        <ele>190</ele>
        <time>2017-03-31T14:30:05Z</time>
      </trkpt>
      <trkpt lat="44.39347" lon="4.19145">
        <ele>191</ele>
        <time>2017-03-31T14:30:15Z</time>
      </trkpt>
    </trkseg>
  </trk>
</gpx>